<?xml version="1.0" encoding="UTF-8" standalone="no" ?>
<gpx xmlns="http://www.topografix.com/GPX/1/1" xmlns:xsi="http://www.w3.org/2001/XMLSchema-instance" xsi:schemaLocation="http://www.topografix.com/GPX/1/1 http://www.topografix.com/GPX/1/1/gpx.xsd" version="1.1" creator="VisuGPX - https://www.visugpx.com">
  <metadata>
    <name>2011-05-05 Chalavornaire</name>
    <desc><![CDATA[Chalavornaire VTT]]></desc>
  </metadata>
  <trk>
    <name><![CDATA[Chalavornaire]]></name>
    <trkseg>
      <trkpt lat="46.34876" lon="6.8879">
        <ele>381.2000122</ele>
        <time>2011-05-05T14:55:14Z</time>
      </trkpt>
      <trkpt lat="46.34876" lon="6.8879">
        <ele>381.2000122</ele>
        <time>2011-05-05T14:55:15Z</time>
      </trkpt>
      <trkpt lat="46.34886" lon="6.88786">
        <ele>382.6000061</ele>
        <time>2011-05-05T14:55:22Z</time>
      </trkpt>
      <trkpt lat="46.34895" lon="6.88771">
        <ele>382.6000061</ele>
        <time>2011-05-05T14:55:28Z</time>
      </trkpt>
      <trkpt lat="46.34912" lon="6.88724">
        <ele>382.6000061</ele>
        <time>2011-05-05T14:55:39Z</time>
      </trkpt>
      <trkpt lat="46.34919" lon="6.88716">
        <ele>382.6000061</ele>
        <time>2011-05-05T14:55:41Z</time>
      </trkpt>
      <trkpt lat="46.34967" lon="6.88654">
        <ele>382.6000061</ele>
        <time>2011-05-05T14:55:56Z</time>
      </trkpt>
      <trkpt lat="46.34993" lon="6.88607">
        <ele>382.6000061</ele>
        <time>2011-05-05T14:56:05Z</time>
      </trkpt>
      <trkpt lat="46.35091" lon="6.88437">
        <ele>382.6000061</ele>
        <time>2011-05-05T14:56:36Z</time>
      </trkpt>
      <trkpt lat="46.35139" lon="6.88361">
        <ele>382.6000061</ele>
        <time>2011-05-05T14:56:50Z</time>
      </trkpt>
      <trkpt lat="46.35158" lon="6.8833">
        <ele>382.6000061</ele>
        <time>2011-05-05T14:56:56Z</time>
      </trkpt>
      <trkpt lat="46.35178" lon="6.88299">
        <ele>382.6000061</ele>
        <time>2011-05-05T14:57:02Z</time>
      </trkpt>
      <trkpt lat="46.35182" lon="6.88295">
        <ele>382.6000061</ele>
        <time>2011-05-05T14:57:03Z</time>
      </trkpt>
      <trkpt lat="46.35231" lon="6.88234">
        <ele>382.6000061</ele>
        <time>2011-05-05T14:57:16Z</time>
      </trkpt>
      <trkpt lat="46.35239" lon="6.88225">
        <ele>382.6000061</ele>
        <time>2011-05-05T14:57:18Z</time>
      </trkpt>
      <trkpt lat="46.35352" lon="6.88126">
        <ele>382.6000061</ele>
        <time>2011-05-05T14:57:44Z</time>
      </trkpt>
      <trkpt lat="46.35441" lon="6.88085">
        <ele>382.6000061</ele>
        <time>2011-05-05T14:58:02Z</time>
      </trkpt>
      <trkpt lat="46.35452" lon="6.88089">
        <ele>382.6000061</ele>
        <time>2011-05-05T14:58:04Z</time>
      </trkpt>
      <trkpt lat="46.35474" lon="6.88097">
        <ele>382.6000061</ele>
        <time>2011-05-05T14:58:08Z</time>
      </trkpt>
      <trkpt lat="46.35479" lon="6.88097">
        <ele>382.6000061</ele>
        <time>2011-05-05T14:58:09Z</time>
      </trkpt>
      <trkpt lat="46.35595" lon="6.88102">
        <ele>382.6000061</ele>
        <time>2011-05-05T14:58:30Z</time>
      </trkpt>
      <trkpt lat="46.356" lon="6.88103">
        <ele>382.6000061</ele>
        <time>2011-05-05T14:58:31Z</time>
      </trkpt>
      <trkpt lat="46.35635" lon="6.88112">
        <ele>382.6000061</ele>
        <time>2011-05-05T14:58:38Z</time>
      </trkpt>
      <trkpt lat="46.35663" lon="6.88123">
        <ele>382.6000061</ele>
        <time>2011-05-05T14:58:44Z</time>
      </trkpt>
      <trkpt lat="46.35676" lon="6.88126">
        <ele>382.6000061</ele>
        <time>2011-05-05T14:58:47Z</time>
      </trkpt>
      <trkpt lat="46.35696" lon="6.88141">
        <ele>382.6000061</ele>
        <time>2011-05-05T14:58:52Z</time>
      </trkpt>
      <trkpt lat="46.3572" lon="6.88162">
        <ele>382.6000061</ele>
        <time>2011-05-05T14:58:59Z</time>
      </trkpt>
      <trkpt lat="46.35757" lon="6.88178">
        <ele>379.2000122</ele>
        <time>2011-05-05T14:59:09Z</time>
      </trkpt>
      <trkpt lat="46.35763" lon="6.88181">
        <ele>378.2000122</ele>
        <time>2011-05-05T14:59:10Z</time>
      </trkpt>
      <trkpt lat="46.35768" lon="6.88185">
        <ele>378.2000122</ele>
        <time>2011-05-05T14:59:11Z</time>
      </trkpt>
      <trkpt lat="46.35782" lon="6.88204">
        <ele>378.2000122</ele>
        <time>2011-05-05T14:59:15Z</time>
      </trkpt>
      <trkpt lat="46.35846" lon="6.88237">
        <ele>380.2000122</ele>
        <time>2011-05-05T14:59:28Z</time>
      </trkpt>
      <trkpt lat="46.35992" lon="6.88325">
        <ele>380.2000122</ele>
        <time>2011-05-05T15:00:00Z</time>
      </trkpt>
      <trkpt lat="46.36122" lon="6.88408">
        <ele>380.2000122</ele>
        <time>2011-05-05T15:00:27Z</time>
      </trkpt>
      <trkpt lat="46.36138" lon="6.88377">
        <ele>379.6000061</ele>
        <time>2011-05-05T15:00:33Z</time>
      </trkpt>
      <trkpt lat="46.3614" lon="6.88357">
        <ele>378.2000122</ele>
        <time>2011-05-05T15:00:35Z</time>
      </trkpt>
      <trkpt lat="46.3614" lon="6.88347">
        <ele>378.2000122</ele>
        <time>2011-05-05T15:00:36Z</time>
      </trkpt>
      <trkpt lat="46.36146" lon="6.88212">
        <ele>375.6000061</ele>
        <time>2011-05-05T15:00:51Z</time>
      </trkpt>
      <trkpt lat="46.36159" lon="6.88037">
        <ele>375.6000061</ele>
        <time>2011-05-05T15:01:13Z</time>
      </trkpt>
      <trkpt lat="46.36184" lon="6.88019">
        <ele>375.6000061</ele>
        <time>2011-05-05T15:01:19Z</time>
      </trkpt>
      <trkpt lat="46.36199" lon="6.88015">
        <ele>375.6000061</ele>
        <time>2011-05-05T15:01:22Z</time>
      </trkpt>
      <trkpt lat="46.36205" lon="6.88015">
        <ele>375.6000061</ele>
        <time>2011-05-05T15:01:23Z</time>
      </trkpt>
      <trkpt lat="46.36274" lon="6.8801">
        <ele>377.2000122</ele>
        <time>2011-05-05T15:01:38Z</time>
      </trkpt>
      <trkpt lat="46.36278" lon="6.87969">
        <ele>377.6000061</ele>
        <time>2011-05-05T15:01:45Z</time>
      </trkpt>
      <trkpt lat="46.36266" lon="6.87875">
        <ele>377.6000061</ele>
        <time>2011-05-05T15:01:58Z</time>
      </trkpt>
      <trkpt lat="46.36249" lon="6.8782">
        <ele>375.6000061</ele>
        <time>2011-05-05T15:02:07Z</time>
      </trkpt>
      <trkpt lat="46.36246" lon="6.87808">
        <ele>375.6000061</ele>
        <time>2011-05-05T15:02:09Z</time>
      </trkpt>
      <trkpt lat="46.36243" lon="6.87737">
        <ele>378.6000061</ele>
        <time>2011-05-05T15:02:23Z</time>
      </trkpt>
      <trkpt lat="46.36246" lon="6.87724">
        <ele>380</ele>
        <time>2011-05-05T15:02:26Z</time>
      </trkpt>
      <trkpt lat="46.36293" lon="6.87683">
        <ele>380</ele>
        <time>2011-05-05T15:02:41Z</time>
      </trkpt>
      <trkpt lat="46.36391" lon="6.87613">
        <ele>380</ele>
        <time>2011-05-05T15:03:02Z</time>
      </trkpt>
      <trkpt lat="46.3642" lon="6.87591">
        <ele>380</ele>
        <time>2011-05-05T15:03:09Z</time>
      </trkpt>
      <trkpt lat="46.3644" lon="6.87578">
        <ele>380</ele>
        <time>2011-05-05T15:03:16Z</time>
      </trkpt>
      <trkpt lat="46.3645" lon="6.8757">
        <ele>380</ele>
        <time>2011-05-05T15:03:19Z</time>
      </trkpt>
      <trkpt lat="46.36459" lon="6.87564">
        <ele>380</ele>
        <time>2011-05-05T15:03:21Z</time>
      </trkpt>
      <trkpt lat="46.36559" lon="6.87481">
        <ele>380</ele>
        <time>2011-05-05T15:03:44Z</time>
      </trkpt>
      <trkpt lat="46.36585" lon="6.87443">
        <ele>380</ele>
        <time>2011-05-05T15:03:51Z</time>
      </trkpt>
      <trkpt lat="46.36681" lon="6.87283">
        <ele>380</ele>
        <time>2011-05-05T15:04:19Z</time>
      </trkpt>
      <trkpt lat="46.36699" lon="6.87253">
        <ele>380</ele>
        <time>2011-05-05T15:04:24Z</time>
      </trkpt>
      <trkpt lat="46.36719" lon="6.87219">
        <ele>380</ele>
        <time>2011-05-05T15:04:31Z</time>
      </trkpt>
      <trkpt lat="46.36709" lon="6.87166">
        <ele>380</ele>
        <time>2011-05-05T15:04:45Z</time>
      </trkpt>
      <trkpt lat="46.36689" lon="6.87156">
        <ele>380</ele>
        <time>2011-05-05T15:04:52Z</time>
      </trkpt>
      <trkpt lat="46.36653" lon="6.87142">
        <ele>382.2000122</ele>
        <time>2011-05-05T15:05:04Z</time>
      </trkpt>
      <trkpt lat="46.36632" lon="6.87152">
        <ele>384.2000122</ele>
        <time>2011-05-05T15:05:13Z</time>
      </trkpt>
      <trkpt lat="46.36632" lon="6.87152">
        <ele>384.2000122</ele>
        <time>2011-05-05T15:05:57Z</time>
      </trkpt>
      <trkpt lat="46.36631" lon="6.87153">
        <ele>386.2000122</ele>
        <time>2011-05-05T15:06:17Z</time>
      </trkpt>
      <trkpt lat="46.36598" lon="6.87146">
        <ele>386.6000061</ele>
        <time>2011-05-05T15:06:31Z</time>
      </trkpt>
      <trkpt lat="46.36573" lon="6.87135">
        <ele>388.2000122</ele>
        <time>2011-05-05T15:06:41Z</time>
      </trkpt>
      <trkpt lat="46.36542" lon="6.87123">
        <ele>391.2000122</ele>
        <time>2011-05-05T15:06:55Z</time>
      </trkpt>
      <trkpt lat="46.36517" lon="6.87115">
        <ele>393.2000122</ele>
        <time>2011-05-05T15:07:07Z</time>
      </trkpt>
      <trkpt lat="46.36502" lon="6.87112">
        <ele>395</ele>
        <time>2011-05-05T15:07:14Z</time>
      </trkpt>
      <trkpt lat="46.36481" lon="6.87114">
        <ele>397.2000122</ele>
        <time>2011-05-05T15:07:25Z</time>
      </trkpt>
      <trkpt lat="46.36479" lon="6.87114">
        <ele>397.6000061</ele>
        <time>2011-05-05T15:07:26Z</time>
      </trkpt>
      <trkpt lat="46.36477" lon="6.87115">
        <ele>398.6000061</ele>
        <time>2011-05-05T15:07:28Z</time>
      </trkpt>
      <trkpt lat="46.36471" lon="6.87113">
        <ele>398.6000061</ele>
        <time>2011-05-05T15:07:31Z</time>
      </trkpt>
      <trkpt lat="46.36447" lon="6.87104">
        <ele>401.6000061</ele>
        <time>2011-05-05T15:07:48Z</time>
      </trkpt>
      <trkpt lat="46.36428" lon="6.87099">
        <ele>403.6000061</ele>
        <time>2011-05-05T15:08:00Z</time>
      </trkpt>
      <trkpt lat="46.36402" lon="6.87094">
        <ele>406.6000061</ele>
        <time>2011-05-05T15:08:13Z</time>
      </trkpt>
      <trkpt lat="46.36378" lon="6.87087">
        <ele>409.2000122</ele>
        <time>2011-05-05T15:08:29Z</time>
      </trkpt>
      <trkpt lat="46.36372" lon="6.87087">
        <ele>409.2000122</ele>
        <time>2011-05-05T15:08:34Z</time>
      </trkpt>
      <trkpt lat="46.36358" lon="6.87118">
        <ele>409.2000122</ele>
        <time>2011-05-05T15:08:45Z</time>
      </trkpt>
      <trkpt lat="46.3635" lon="6.87139">
        <ele>407.2000122</ele>
        <time>2011-05-05T15:08:49Z</time>
      </trkpt>
      <trkpt lat="46.36348" lon="6.87144">
        <ele>406.6000061</ele>
        <time>2011-05-05T15:08:50Z</time>
      </trkpt>
      <trkpt lat="46.36346" lon="6.87155">
        <ele>405.6000061</ele>
        <time>2011-05-05T15:08:52Z</time>
      </trkpt>
      <trkpt lat="46.36354" lon="6.87177">
        <ele>403.2000122</ele>
        <time>2011-05-05T15:08:58Z</time>
      </trkpt>
      <trkpt lat="46.36353" lon="6.87181">
        <ele>402.6000061</ele>
        <time>2011-05-05T15:09:14Z</time>
      </trkpt>
      <trkpt lat="46.36358" lon="6.87197">
        <ele>403.6000061</ele>
        <time>2011-05-05T15:09:21Z</time>
      </trkpt>
      <trkpt lat="46.36357" lon="6.87197">
        <ele>405</ele>
        <time>2011-05-05T15:09:26Z</time>
      </trkpt>
      <trkpt lat="46.3635" lon="6.87194">
        <ele>406.6000061</ele>
        <time>2011-05-05T15:09:34Z</time>
      </trkpt>
      <trkpt lat="46.36348" lon="6.87192">
        <ele>407</ele>
        <time>2011-05-05T15:09:36Z</time>
      </trkpt>
      <trkpt lat="46.36331" lon="6.87191">
        <ele>407.2000122</ele>
        <time>2011-05-05T15:09:45Z</time>
      </trkpt>
      <trkpt lat="46.3633" lon="6.87191">
        <ele>407.6000061</ele>
        <time>2011-05-05T15:09:46Z</time>
      </trkpt>
      <trkpt lat="46.36328" lon="6.87192">
        <ele>408.6000061</ele>
        <time>2011-05-05T15:09:48Z</time>
      </trkpt>
      <trkpt lat="46.36317" lon="6.8719">
        <ele>410</ele>
        <time>2011-05-05T15:09:54Z</time>
      </trkpt>
      <trkpt lat="46.36303" lon="6.87182">
        <ele>411.6000061</ele>
        <time>2011-05-05T15:10:03Z</time>
      </trkpt>
      <trkpt lat="46.36302" lon="6.87181">
        <ele>413</ele>
        <time>2011-05-05T15:10:05Z</time>
      </trkpt>
      <trkpt lat="46.36289" lon="6.8717">
        <ele>415</ele>
        <time>2011-05-05T15:10:17Z</time>
      </trkpt>
      <trkpt lat="46.36282" lon="6.87159">
        <ele>416.6000061</ele>
        <time>2011-05-05T15:10:25Z</time>
      </trkpt>
      <trkpt lat="46.36276" lon="6.87145">
        <ele>419.2000122</ele>
        <time>2011-05-05T15:10:33Z</time>
      </trkpt>
      <trkpt lat="46.36272" lon="6.87133">
        <ele>420</ele>
        <time>2011-05-05T15:10:40Z</time>
      </trkpt>
      <trkpt lat="46.36269" lon="6.87126">
        <ele>422</ele>
        <time>2011-05-05T15:10:44Z</time>
      </trkpt>
      <trkpt lat="46.36251" lon="6.87116">
        <ele>422</ele>
        <time>2011-05-05T15:10:55Z</time>
      </trkpt>
      <trkpt lat="46.36238" lon="6.87121">
        <ele>423.2000122</ele>
        <time>2011-05-05T15:11:03Z</time>
      </trkpt>
      <trkpt lat="46.36235" lon="6.87138">
        <ele>424.6000061</ele>
        <time>2011-05-05T15:11:13Z</time>
      </trkpt>
      <trkpt lat="46.36215" lon="6.87144">
        <ele>426</ele>
        <time>2011-05-05T15:11:25Z</time>
      </trkpt>
      <trkpt lat="46.36206" lon="6.87142">
        <ele>429.2000122</ele>
        <time>2011-05-05T15:11:44Z</time>
      </trkpt>
      <trkpt lat="46.36192" lon="6.87139">
        <ele>430.6000061</ele>
        <time>2011-05-05T15:11:59Z</time>
      </trkpt>
      <trkpt lat="46.36189" lon="6.8714">
        <ele>432.2000122</ele>
        <time>2011-05-05T15:12:03Z</time>
      </trkpt>
      <trkpt lat="46.36181" lon="6.87143">
        <ele>433.6000061</ele>
        <time>2011-05-05T15:12:14Z</time>
      </trkpt>
      <trkpt lat="46.36163" lon="6.87154">
        <ele>434.2000122</ele>
        <time>2011-05-05T15:12:32Z</time>
      </trkpt>
      <trkpt lat="46.36148" lon="6.87174">
        <ele>436</ele>
        <time>2011-05-05T15:12:43Z</time>
      </trkpt>
      <trkpt lat="46.36149" lon="6.87183">
        <ele>436.2000122</ele>
        <time>2011-05-05T15:13:18Z</time>
      </trkpt>
      <trkpt lat="46.36149" lon="6.87183">
        <ele>436.2000122</ele>
        <time>2011-05-05T15:13:29Z</time>
      </trkpt>
      <trkpt lat="46.36142" lon="6.87156">
        <ele>436.6000061</ele>
        <time>2011-05-05T15:13:41Z</time>
      </trkpt>
      <trkpt lat="46.36137" lon="6.87148">
        <ele>439</ele>
        <time>2011-05-05T15:13:49Z</time>
      </trkpt>
      <trkpt lat="46.36133" lon="6.87139">
        <ele>440.6000061</ele>
        <time>2011-05-05T15:13:58Z</time>
      </trkpt>
      <trkpt lat="46.36131" lon="6.87135">
        <ele>441.2000122</ele>
        <time>2011-05-05T15:14:02Z</time>
      </trkpt>
      <trkpt lat="46.36127" lon="6.87127">
        <ele>442.6000061</ele>
        <time>2011-05-05T15:14:09Z</time>
      </trkpt>
      <trkpt lat="46.36125" lon="6.87125">
        <ele>444.2000122</ele>
        <time>2011-05-05T15:14:12Z</time>
      </trkpt>
      <trkpt lat="46.36121" lon="6.87121">
        <ele>445.2000122</ele>
        <time>2011-05-05T15:14:18Z</time>
      </trkpt>
      <trkpt lat="46.36118" lon="6.87119">
        <ele>446.2000122</ele>
        <time>2011-05-05T15:14:21Z</time>
      </trkpt>
      <trkpt lat="46.36113" lon="6.87116">
        <ele>446.6000061</ele>
        <time>2011-05-05T15:14:26Z</time>
      </trkpt>
      <trkpt lat="46.36103" lon="6.87108">
        <ele>449</ele>
        <time>2011-05-05T15:14:37Z</time>
      </trkpt>
      <trkpt lat="46.36098" lon="6.87109">
        <ele>451</ele>
        <time>2011-05-05T15:14:44Z</time>
      </trkpt>
      <trkpt lat="46.36095" lon="6.87109">
        <ele>452</ele>
        <time>2011-05-05T15:14:49Z</time>
      </trkpt>
      <trkpt lat="46.36094" lon="6.8711">
        <ele>453.2000122</ele>
        <time>2011-05-05T15:14:53Z</time>
      </trkpt>
      <trkpt lat="46.36088" lon="6.87114">
        <ele>453.6000061</ele>
        <time>2011-05-05T15:14:58Z</time>
      </trkpt>
      <trkpt lat="46.3608" lon="6.87119">
        <ele>455.6000061</ele>
        <time>2011-05-05T15:15:07Z</time>
      </trkpt>
      <trkpt lat="46.36078" lon="6.87116">
        <ele>457.2000122</ele>
        <time>2011-05-05T15:15:11Z</time>
      </trkpt>
      <trkpt lat="46.36086" lon="6.87097">
        <ele>457.2000122</ele>
        <time>2011-05-05T15:15:26Z</time>
      </trkpt>
      <trkpt lat="46.36092" lon="6.87071">
        <ele>459.6000061</ele>
        <time>2011-05-05T15:15:37Z</time>
      </trkpt>
      <trkpt lat="46.36094" lon="6.87069">
        <ele>460.6000061</ele>
        <time>2011-05-05T15:15:39Z</time>
      </trkpt>
      <trkpt lat="46.36098" lon="6.87054">
        <ele>462.2000122</ele>
        <time>2011-05-05T15:15:47Z</time>
      </trkpt>
      <trkpt lat="46.36103" lon="6.87034">
        <ele>464</ele>
        <time>2011-05-05T15:15:56Z</time>
      </trkpt>
      <trkpt lat="46.36103" lon="6.8703">
        <ele>464.6000061</ele>
        <time>2011-05-05T15:15:58Z</time>
      </trkpt>
      <trkpt lat="46.361" lon="6.8702">
        <ele>465.6000061</ele>
        <time>2011-05-05T15:16:07Z</time>
      </trkpt>
      <trkpt lat="46.3609" lon="6.86994">
        <ele>467.6000061</ele>
        <time>2011-05-05T15:16:20Z</time>
      </trkpt>
      <trkpt lat="46.36076" lon="6.8697">
        <ele>469.6000061</ele>
        <time>2011-05-05T15:16:36Z</time>
      </trkpt>
      <trkpt lat="46.36067" lon="6.86948">
        <ele>471.6000061</ele>
        <time>2011-05-05T15:16:48Z</time>
      </trkpt>
      <trkpt lat="46.36065" lon="6.86931">
        <ele>473.6000061</ele>
        <time>2011-05-05T15:16:57Z</time>
      </trkpt>
      <trkpt lat="46.36061" lon="6.86913">
        <ele>476</ele>
        <time>2011-05-05T15:17:14Z</time>
      </trkpt>
      <trkpt lat="46.3606" lon="6.86911">
        <ele>476.2000122</ele>
        <time>2011-05-05T15:17:16Z</time>
      </trkpt>
      <trkpt lat="46.36059" lon="6.86908">
        <ele>477.2000122</ele>
        <time>2011-05-05T15:17:18Z</time>
      </trkpt>
      <trkpt lat="46.36058" lon="6.86897">
        <ele>480</ele>
        <time>2011-05-05T15:17:42Z</time>
      </trkpt>
      <trkpt lat="46.36058" lon="6.86896">
        <ele>480</ele>
        <time>2011-05-05T15:17:43Z</time>
      </trkpt>
      <trkpt lat="46.36056" lon="6.86876">
        <ele>482</ele>
        <time>2011-05-05T15:17:56Z</time>
      </trkpt>
      <trkpt lat="46.36053" lon="6.86869">
        <ele>482</ele>
        <time>2011-05-05T15:18:04Z</time>
      </trkpt>
      <trkpt lat="46.36048" lon="6.86857">
        <ele>484.2000122</ele>
        <time>2011-05-05T15:18:14Z</time>
      </trkpt>
      <trkpt lat="46.36057" lon="6.86841">
        <ele>484.2000122</ele>
        <time>2011-05-05T15:18:27Z</time>
      </trkpt>
      <trkpt lat="46.36056" lon="6.86839">
        <ele>484.6000061</ele>
        <time>2011-05-05T15:18:32Z</time>
      </trkpt>
      <trkpt lat="46.36054" lon="6.86819">
        <ele>486.2000122</ele>
        <time>2011-05-05T15:18:43Z</time>
      </trkpt>
      <trkpt lat="46.36039" lon="6.8681">
        <ele>488.2000122</ele>
        <time>2011-05-05T15:18:54Z</time>
      </trkpt>
      <trkpt lat="46.36018" lon="6.86802">
        <ele>491</ele>
        <time>2011-05-05T15:19:09Z</time>
      </trkpt>
      <trkpt lat="46.36011" lon="6.86802">
        <ele>492.6000061</ele>
        <time>2011-05-05T15:19:14Z</time>
      </trkpt>
      <trkpt lat="46.36003" lon="6.86796">
        <ele>493.6000061</ele>
        <time>2011-05-05T15:19:22Z</time>
      </trkpt>
      <trkpt lat="46.35996" lon="6.86782">
        <ele>495.2000122</ele>
        <time>2011-05-05T15:19:30Z</time>
      </trkpt>
      <trkpt lat="46.35995" lon="6.8676">
        <ele>497.2000122</ele>
        <time>2011-05-05T15:19:38Z</time>
      </trkpt>
      <trkpt lat="46.35998" lon="6.8675">
        <ele>498.6000061</ele>
        <time>2011-05-05T15:19:44Z</time>
      </trkpt>
      <trkpt lat="46.36019" lon="6.86756">
        <ele>500.6000061</ele>
        <time>2011-05-05T15:19:59Z</time>
      </trkpt>
      <trkpt lat="46.36041" lon="6.86765">
        <ele>503.6000061</ele>
        <time>2011-05-05T15:20:14Z</time>
      </trkpt>
      <trkpt lat="46.36057" lon="6.86767">
        <ele>506.2000122</ele>
        <time>2011-05-05T15:20:25Z</time>
      </trkpt>
      <trkpt lat="46.36074" lon="6.86773">
        <ele>509.2000122</ele>
        <time>2011-05-05T15:20:38Z</time>
      </trkpt>
      <trkpt lat="46.36097" lon="6.86767">
        <ele>512.4000244</ele>
        <time>2011-05-05T15:20:53Z</time>
      </trkpt>
      <trkpt lat="46.36118" lon="6.86764">
        <ele>515.4000244</ele>
        <time>2011-05-05T15:21:07Z</time>
      </trkpt>
      <trkpt lat="46.36135" lon="6.8675">
        <ele>517.5999756</ele>
        <time>2011-05-05T15:21:21Z</time>
      </trkpt>
      <trkpt lat="46.36148" lon="6.86725">
        <ele>521</ele>
        <time>2011-05-05T15:21:36Z</time>
      </trkpt>
      <trkpt lat="46.36149" lon="6.86719">
        <ele>522</ele>
        <time>2011-05-05T15:21:40Z</time>
      </trkpt>
      <trkpt lat="46.36149" lon="6.86714">
        <ele>522.4000244</ele>
        <time>2011-05-05T15:21:44Z</time>
      </trkpt>
      <trkpt lat="46.36153" lon="6.86707">
        <ele>524.2000122</ele>
        <time>2011-05-05T15:21:48Z</time>
      </trkpt>
      <trkpt lat="46.36168" lon="6.86703">
        <ele>525.5999756</ele>
        <time>2011-05-05T15:21:58Z</time>
      </trkpt>
      <trkpt lat="46.36169" lon="6.86703">
        <ele>526.2000122</ele>
        <time>2011-05-05T15:21:59Z</time>
      </trkpt>
      <trkpt lat="46.36195" lon="6.86704">
        <ele>528.4000244</ele>
        <time>2011-05-05T15:22:17Z</time>
      </trkpt>
      <trkpt lat="46.36216" lon="6.86704">
        <ele>531</ele>
        <time>2011-05-05T15:22:30Z</time>
      </trkpt>
      <trkpt lat="46.3623" lon="6.86703">
        <ele>532.5999756</ele>
        <time>2011-05-05T15:22:41Z</time>
      </trkpt>
      <trkpt lat="46.36241" lon="6.867">
        <ele>534.4000244</ele>
        <time>2011-05-05T15:22:49Z</time>
      </trkpt>
      <trkpt lat="46.3627" lon="6.86704">
        <ele>537.4000244</ele>
        <time>2011-05-05T15:23:08Z</time>
      </trkpt>
      <trkpt lat="46.36277" lon="6.86704">
        <ele>539</ele>
        <time>2011-05-05T15:23:11Z</time>
      </trkpt>
      <trkpt lat="46.36272" lon="6.86682">
        <ele>541</ele>
        <time>2011-05-05T15:23:28Z</time>
      </trkpt>
      <trkpt lat="46.36267" lon="6.86679">
        <ele>541</ele>
        <time>2011-05-05T15:23:32Z</time>
      </trkpt>
      <trkpt lat="46.3626" lon="6.86674">
        <ele>543</ele>
        <time>2011-05-05T15:23:37Z</time>
      </trkpt>
      <trkpt lat="46.36241" lon="6.86661">
        <ele>545</ele>
        <time>2011-05-05T15:23:51Z</time>
      </trkpt>
      <trkpt lat="46.36221" lon="6.8664">
        <ele>548.2000122</ele>
        <time>2011-05-05T15:24:07Z</time>
      </trkpt>
      <trkpt lat="46.36217" lon="6.86635">
        <ele>549.5999756</ele>
        <time>2011-05-05T15:24:10Z</time>
      </trkpt>
      <trkpt lat="46.362" lon="6.8662">
        <ele>552</ele>
        <time>2011-05-05T15:24:27Z</time>
      </trkpt>
      <trkpt lat="46.36184" lon="6.86614">
        <ele>555</ele>
        <time>2011-05-05T15:24:40Z</time>
      </trkpt>
      <trkpt lat="46.36165" lon="6.86602">
        <ele>558</ele>
        <time>2011-05-05T15:24:53Z</time>
      </trkpt>
      <trkpt lat="46.36143" lon="6.86582">
        <ele>561</ele>
        <time>2011-05-05T15:25:11Z</time>
      </trkpt>
      <trkpt lat="46.36132" lon="6.86574">
        <ele>564</ele>
        <time>2011-05-05T15:25:22Z</time>
      </trkpt>
      <trkpt lat="46.36131" lon="6.86573">
        <ele>564.4000244</ele>
        <time>2011-05-05T15:25:23Z</time>
      </trkpt>
      <trkpt lat="46.36124" lon="6.86568">
        <ele>564.5999756</ele>
        <time>2011-05-05T15:25:30Z</time>
      </trkpt>
      <trkpt lat="46.36108" lon="6.86559">
        <ele>567</ele>
        <time>2011-05-05T15:25:41Z</time>
      </trkpt>
      <trkpt lat="46.36091" lon="6.8656">
        <ele>570</ele>
        <time>2011-05-05T15:25:54Z</time>
      </trkpt>
      <trkpt lat="46.36073" lon="6.86569">
        <ele>573</ele>
        <time>2011-05-05T15:26:06Z</time>
      </trkpt>
      <trkpt lat="46.36053" lon="6.86559">
        <ele>575.4000244</ele>
        <time>2011-05-05T15:26:21Z</time>
      </trkpt>
      <trkpt lat="46.36062" lon="6.86531">
        <ele>578.4000244</ele>
        <time>2011-05-05T15:26:36Z</time>
      </trkpt>
      <trkpt lat="46.36065" lon="6.86525">
        <ele>579.4000244</ele>
        <time>2011-05-05T15:26:39Z</time>
      </trkpt>
      <trkpt lat="46.36068" lon="6.86519">
        <ele>579.4000244</ele>
        <time>2011-05-05T15:26:43Z</time>
      </trkpt>
      <trkpt lat="46.36069" lon="6.8651">
        <ele>580.4000244</ele>
        <time>2011-05-05T15:26:48Z</time>
      </trkpt>
      <trkpt lat="46.36081" lon="6.86489">
        <ele>583.2000122</ele>
        <time>2011-05-05T15:27:01Z</time>
      </trkpt>
      <trkpt lat="46.36103" lon="6.86471">
        <ele>586</ele>
        <time>2011-05-05T15:27:19Z</time>
      </trkpt>
      <trkpt lat="46.3613" lon="6.86461">
        <ele>589.2000122</ele>
        <time>2011-05-05T15:27:35Z</time>
      </trkpt>
      <trkpt lat="46.36141" lon="6.86451">
        <ele>590.4000244</ele>
        <time>2011-05-05T15:27:44Z</time>
      </trkpt>
      <trkpt lat="46.36143" lon="6.86446">
        <ele>591.4000244</ele>
        <time>2011-05-05T15:27:47Z</time>
      </trkpt>
      <trkpt lat="46.3613" lon="6.86423">
        <ele>594.2000122</ele>
        <time>2011-05-05T15:28:04Z</time>
      </trkpt>
      <trkpt lat="46.36107" lon="6.86412">
        <ele>597.2000122</ele>
        <time>2011-05-05T15:28:22Z</time>
      </trkpt>
      <trkpt lat="46.36086" lon="6.8641">
        <ele>600.2000122</ele>
        <time>2011-05-05T15:28:36Z</time>
      </trkpt>
      <trkpt lat="46.36062" lon="6.86397">
        <ele>603.4000244</ele>
        <time>2011-05-05T15:28:53Z</time>
      </trkpt>
      <trkpt lat="46.36049" lon="6.86378">
        <ele>606.4000244</ele>
        <time>2011-05-05T15:29:06Z</time>
      </trkpt>
      <trkpt lat="46.36037" lon="6.86346">
        <ele>609.2000122</ele>
        <time>2011-05-05T15:29:23Z</time>
      </trkpt>
      <trkpt lat="46.36031" lon="6.86324">
        <ele>612.2000122</ele>
        <time>2011-05-05T15:29:36Z</time>
      </trkpt>
      <trkpt lat="46.36025" lon="6.86293">
        <ele>615</ele>
        <time>2011-05-05T15:29:52Z</time>
      </trkpt>
      <trkpt lat="46.36016" lon="6.86264">
        <ele>618</ele>
        <time>2011-05-05T15:30:10Z</time>
      </trkpt>
      <trkpt lat="46.36014" lon="6.86256">
        <ele>619.2000122</ele>
        <time>2011-05-05T15:30:14Z</time>
      </trkpt>
      <trkpt lat="46.36007" lon="6.86243">
        <ele>621.4000244</ele>
        <time>2011-05-05T15:30:23Z</time>
      </trkpt>
      <trkpt lat="46.36001" lon="6.86233">
        <ele>622.4000244</ele>
        <time>2011-05-05T15:30:31Z</time>
      </trkpt>
      <trkpt lat="46.35996" lon="6.86224">
        <ele>623.4000244</ele>
        <time>2011-05-05T15:30:38Z</time>
      </trkpt>
      <trkpt lat="46.35981" lon="6.8621">
        <ele>626.4000244</ele>
        <time>2011-05-05T15:30:54Z</time>
      </trkpt>
      <trkpt lat="46.35978" lon="6.86206">
        <ele>627.4000244</ele>
        <time>2011-05-05T15:30:57Z</time>
      </trkpt>
      <trkpt lat="46.35968" lon="6.86198">
        <ele>629.4000244</ele>
        <time>2011-05-05T15:31:06Z</time>
      </trkpt>
      <trkpt lat="46.35967" lon="6.86196">
        <ele>629.5999756</ele>
        <time>2011-05-05T15:31:07Z</time>
      </trkpt>
      <trkpt lat="46.35965" lon="6.86194">
        <ele>629.5999756</ele>
        <time>2011-05-05T15:31:09Z</time>
      </trkpt>
      <trkpt lat="46.35953" lon="6.86187">
        <ele>631.5999756</ele>
        <time>2011-05-05T15:31:19Z</time>
      </trkpt>
      <trkpt lat="46.35944" lon="6.86177">
        <ele>633.4000244</ele>
        <time>2011-05-05T15:31:28Z</time>
      </trkpt>
      <trkpt lat="46.35929" lon="6.8616">
        <ele>636</ele>
        <time>2011-05-05T15:31:41Z</time>
      </trkpt>
      <trkpt lat="46.35916" lon="6.86138">
        <ele>639</ele>
        <time>2011-05-05T15:31:56Z</time>
      </trkpt>
      <trkpt lat="46.35907" lon="6.86121">
        <ele>641.4000244</ele>
        <time>2011-05-05T15:32:08Z</time>
      </trkpt>
      <trkpt lat="46.35897" lon="6.861">
        <ele>644.4000244</ele>
        <time>2011-05-05T15:32:20Z</time>
      </trkpt>
      <trkpt lat="46.35893" lon="6.86092">
        <ele>644.4000244</ele>
        <time>2011-05-05T15:32:25Z</time>
      </trkpt>
      <trkpt lat="46.35881" lon="6.86065">
        <ele>647.4000244</ele>
        <time>2011-05-05T15:32:42Z</time>
      </trkpt>
      <trkpt lat="46.3587" lon="6.8605">
        <ele>650.4000244</ele>
        <time>2011-05-05T15:32:54Z</time>
      </trkpt>
      <trkpt lat="46.3586" lon="6.86042">
        <ele>651.5999756</ele>
        <time>2011-05-05T15:33:03Z</time>
      </trkpt>
      <trkpt lat="46.35848" lon="6.86023">
        <ele>654.5999756</ele>
        <time>2011-05-05T15:33:15Z</time>
      </trkpt>
      <trkpt lat="46.35845" lon="6.86009">
        <ele>655.4000244</ele>
        <time>2011-05-05T15:33:22Z</time>
      </trkpt>
      <trkpt lat="46.35847" lon="6.85996">
        <ele>657</ele>
        <time>2011-05-05T15:33:28Z</time>
      </trkpt>
      <trkpt lat="46.35853" lon="6.85987">
        <ele>658.2000122</ele>
        <time>2011-05-05T15:33:36Z</time>
      </trkpt>
      <trkpt lat="46.35861" lon="6.85984">
        <ele>659.2000122</ele>
        <time>2011-05-05T15:33:43Z</time>
      </trkpt>
      <trkpt lat="46.35885" lon="6.86003">
        <ele>661.4000244</ele>
        <time>2011-05-05T15:34:02Z</time>
      </trkpt>
      <trkpt lat="46.35886" lon="6.86007">
        <ele>662.4000244</ele>
        <time>2011-05-05T15:34:04Z</time>
      </trkpt>
      <trkpt lat="46.35897" lon="6.8603">
        <ele>664.4000244</ele>
        <time>2011-05-05T15:34:16Z</time>
      </trkpt>
      <trkpt lat="46.35909" lon="6.86058">
        <ele>667.4000244</ele>
        <time>2011-05-05T15:34:28Z</time>
      </trkpt>
      <trkpt lat="46.35909" lon="6.8606">
        <ele>667.4000244</ele>
        <time>2011-05-05T15:34:29Z</time>
      </trkpt>
      <trkpt lat="46.3593" lon="6.86087">
        <ele>670.4000244</ele>
        <time>2011-05-05T15:34:48Z</time>
      </trkpt>
      <trkpt lat="46.35931" lon="6.86088">
        <ele>671</ele>
        <time>2011-05-05T15:34:49Z</time>
      </trkpt>
      <trkpt lat="46.3594" lon="6.86097">
        <ele>671.5999756</ele>
        <time>2011-05-05T15:34:57Z</time>
      </trkpt>
      <trkpt lat="46.3595" lon="6.86105">
        <ele>673.5999756</ele>
        <time>2011-05-05T15:35:06Z</time>
      </trkpt>
      <trkpt lat="46.3597" lon="6.8609">
        <ele>676.2000122</ele>
        <time>2011-05-05T15:35:18Z</time>
      </trkpt>
      <trkpt lat="46.35984" lon="6.8608">
        <ele>678.2000122</ele>
        <time>2011-05-05T15:35:28Z</time>
      </trkpt>
      <trkpt lat="46.35979" lon="6.86067">
        <ele>680.4000244</ele>
        <time>2011-05-05T15:35:41Z</time>
      </trkpt>
      <trkpt lat="46.35976" lon="6.86067">
        <ele>681.4000244</ele>
        <time>2011-05-05T15:35:44Z</time>
      </trkpt>
      <trkpt lat="46.35967" lon="6.86073">
        <ele>682</ele>
        <time>2011-05-05T15:35:56Z</time>
      </trkpt>
      <trkpt lat="46.35964" lon="6.86074">
        <ele>683.4000244</ele>
        <time>2011-05-05T15:36:00Z</time>
      </trkpt>
      <trkpt lat="46.35942" lon="6.86069">
        <ele>686.2000122</ele>
        <time>2011-05-05T15:36:16Z</time>
      </trkpt>
      <trkpt lat="46.35938" lon="6.86064">
        <ele>687.5999756</ele>
        <time>2011-05-05T15:36:20Z</time>
      </trkpt>
      <trkpt lat="46.35929" lon="6.86047">
        <ele>690.4000244</ele>
        <time>2011-05-05T15:36:33Z</time>
      </trkpt>
      <trkpt lat="46.35926" lon="6.86018">
        <ele>693</ele>
        <time>2011-05-05T15:36:46Z</time>
      </trkpt>
      <trkpt lat="46.35926" lon="6.86001">
        <ele>695.2000122</ele>
        <time>2011-05-05T15:36:55Z</time>
      </trkpt>
      <trkpt lat="46.35922" lon="6.85982">
        <ele>697.4000244</ele>
        <time>2011-05-05T15:37:05Z</time>
      </trkpt>
      <trkpt lat="46.35921" lon="6.85981">
        <ele>697.5999756</ele>
        <time>2011-05-05T15:37:06Z</time>
      </trkpt>
      <trkpt lat="46.3591" lon="6.85969">
        <ele>700.5999756</ele>
        <time>2011-05-05T15:37:17Z</time>
      </trkpt>
      <trkpt lat="46.35895" lon="6.85946">
        <ele>703.5999756</ele>
        <time>2011-05-05T15:37:33Z</time>
      </trkpt>
      <trkpt lat="46.35893" lon="6.85941">
        <ele>705</ele>
        <time>2011-05-05T15:37:36Z</time>
      </trkpt>
      <trkpt lat="46.35883" lon="6.85916">
        <ele>708</ele>
        <time>2011-05-05T15:37:52Z</time>
      </trkpt>
      <trkpt lat="46.35872" lon="6.85893">
        <ele>710.4000244</ele>
        <time>2011-05-05T15:38:05Z</time>
      </trkpt>
      <trkpt lat="46.35861" lon="6.85874">
        <ele>713.4000244</ele>
        <time>2011-05-05T15:38:18Z</time>
      </trkpt>
      <trkpt lat="46.35854" lon="6.85857">
        <ele>714.4000244</ele>
        <time>2011-05-05T15:38:27Z</time>
      </trkpt>
      <trkpt lat="46.3585" lon="6.85854">
        <ele>715.5999756</ele>
        <time>2011-05-05T15:38:30Z</time>
      </trkpt>
      <trkpt lat="46.35827" lon="6.8584">
        <ele>718.4000244</ele>
        <time>2011-05-05T15:38:47Z</time>
      </trkpt>
      <trkpt lat="46.35821" lon="6.85838">
        <ele>720</ele>
        <time>2011-05-05T15:38:51Z</time>
      </trkpt>
      <trkpt lat="46.35812" lon="6.85837">
        <ele>721.5999756</ele>
        <time>2011-05-05T15:38:59Z</time>
      </trkpt>
      <trkpt lat="46.35791" lon="6.85829">
        <ele>724.5999756</ele>
        <time>2011-05-05T15:39:16Z</time>
      </trkpt>
      <trkpt lat="46.35782" lon="6.85816">
        <ele>727</ele>
        <time>2011-05-05T15:39:25Z</time>
      </trkpt>
      <trkpt lat="46.35772" lon="6.85797">
        <ele>729.5999756</ele>
        <time>2011-05-05T15:39:38Z</time>
      </trkpt>
      <trkpt lat="46.35753" lon="6.8578">
        <ele>732.4000244</ele>
        <time>2011-05-05T15:39:54Z</time>
      </trkpt>
      <trkpt lat="46.35738" lon="6.85762">
        <ele>735.2000122</ele>
        <time>2011-05-05T15:40:09Z</time>
      </trkpt>
      <trkpt lat="46.35726" lon="6.85748">
        <ele>737.4000244</ele>
        <time>2011-05-05T15:40:18Z</time>
      </trkpt>
      <trkpt lat="46.35719" lon="6.85736">
        <ele>741</ele>
        <time>2011-05-05T15:40:42Z</time>
      </trkpt>
      <trkpt lat="46.35718" lon="6.85735">
        <ele>741</ele>
        <time>2011-05-05T15:40:43Z</time>
      </trkpt>
      <trkpt lat="46.35693" lon="6.85709">
        <ele>743</ele>
        <time>2011-05-05T15:41:02Z</time>
      </trkpt>
      <trkpt lat="46.35669" lon="6.85717">
        <ele>745.4000244</ele>
        <time>2011-05-05T15:41:18Z</time>
      </trkpt>
      <trkpt lat="46.35666" lon="6.85723">
        <ele>747.4000244</ele>
        <time>2011-05-05T15:41:22Z</time>
      </trkpt>
      <trkpt lat="46.35659" lon="6.85758">
        <ele>750</ele>
        <time>2011-05-05T15:41:38Z</time>
      </trkpt>
      <trkpt lat="46.35655" lon="6.85779">
        <ele>752</ele>
        <time>2011-05-05T15:41:49Z</time>
      </trkpt>
      <trkpt lat="46.35659" lon="6.85803">
        <ele>755</ele>
        <time>2011-05-05T15:42:00Z</time>
      </trkpt>
      <trkpt lat="46.35662" lon="6.85811">
        <ele>755.5999756</ele>
        <time>2011-05-05T15:42:04Z</time>
      </trkpt>
      <trkpt lat="46.35663" lon="6.85819">
        <ele>755.5999756</ele>
        <time>2011-05-05T15:44:10Z</time>
      </trkpt>
      <trkpt lat="46.35664" lon="6.85824">
        <ele>755.5999756</ele>
        <time>2011-05-05T15:44:19Z</time>
      </trkpt>
      <trkpt lat="46.35654" lon="6.85823">
        <ele>756.2000122</ele>
        <time>2011-05-05T15:44:27Z</time>
      </trkpt>
      <trkpt lat="46.35651" lon="6.85813">
        <ele>758</ele>
        <time>2011-05-05T15:44:31Z</time>
      </trkpt>
      <trkpt lat="46.3565" lon="6.85806">
        <ele>758</ele>
        <time>2011-05-05T15:44:35Z</time>
      </trkpt>
      <trkpt lat="46.3565" lon="6.85787">
        <ele>760.2000122</ele>
        <time>2011-05-05T15:44:44Z</time>
      </trkpt>
      <trkpt lat="46.3565" lon="6.85779">
        <ele>761.5999756</ele>
        <time>2011-05-05T15:44:50Z</time>
      </trkpt>
      <trkpt lat="46.35643" lon="6.85756">
        <ele>763.2000122</ele>
        <time>2011-05-05T15:45:02Z</time>
      </trkpt>
      <trkpt lat="46.35642" lon="6.85754">
        <ele>763.4000244</ele>
        <time>2011-05-05T15:45:03Z</time>
      </trkpt>
      <trkpt lat="46.35635" lon="6.85731">
        <ele>766.4000244</ele>
        <time>2011-05-05T15:45:14Z</time>
      </trkpt>
      <trkpt lat="46.35625" lon="6.85688">
        <ele>768.4000244</ele>
        <time>2011-05-05T15:45:31Z</time>
      </trkpt>
      <trkpt lat="46.35623" lon="6.85663">
        <ele>770.4000244</ele>
        <time>2011-05-05T15:45:41Z</time>
      </trkpt>
      <trkpt lat="46.35628" lon="6.8565">
        <ele>772.4000244</ele>
        <time>2011-05-05T15:45:47Z</time>
      </trkpt>
      <trkpt lat="46.35645" lon="6.85627">
        <ele>774.5999756</ele>
        <time>2011-05-05T15:46:03Z</time>
      </trkpt>
      <trkpt lat="46.35652" lon="6.85627">
        <ele>775.4000244</ele>
        <time>2011-05-05T15:46:09Z</time>
      </trkpt>
      <trkpt lat="46.35671" lon="6.85636">
        <ele>778.2000122</ele>
        <time>2011-05-05T15:46:20Z</time>
      </trkpt>
      <trkpt lat="46.35673" lon="6.85635">
        <ele>778.4000244</ele>
        <time>2011-05-05T15:46:21Z</time>
      </trkpt>
      <trkpt lat="46.35669" lon="6.85621">
        <ele>779.4000244</ele>
        <time>2011-05-05T15:46:33Z</time>
      </trkpt>
      <trkpt lat="46.35655" lon="6.85601">
        <ele>782.4000244</ele>
        <time>2011-05-05T15:46:47Z</time>
      </trkpt>
      <trkpt lat="46.3564" lon="6.85599">
        <ele>784</ele>
        <time>2011-05-05T15:46:55Z</time>
      </trkpt>
      <trkpt lat="46.35635" lon="6.85597">
        <ele>785.5999756</ele>
        <time>2011-05-05T15:46:59Z</time>
      </trkpt>
      <trkpt lat="46.35626" lon="6.85593">
        <ele>785.5999756</ele>
        <time>2011-05-05T15:47:06Z</time>
      </trkpt>
      <trkpt lat="46.3562" lon="6.85595">
        <ele>787.5999756</ele>
        <time>2011-05-05T15:47:11Z</time>
      </trkpt>
      <trkpt lat="46.35601" lon="6.8561">
        <ele>789.5999756</ele>
        <time>2011-05-05T15:47:26Z</time>
      </trkpt>
      <trkpt lat="46.35597" lon="6.85597">
        <ele>792</ele>
        <time>2011-05-05T15:47:32Z</time>
      </trkpt>
      <trkpt lat="46.35597" lon="6.85595">
        <ele>792</ele>
        <time>2011-05-05T15:47:33Z</time>
      </trkpt>
      <trkpt lat="46.35605" lon="6.85583">
        <ele>792.5999756</ele>
        <time>2011-05-05T15:47:41Z</time>
      </trkpt>
      <trkpt lat="46.35617" lon="6.85555">
        <ele>795.5999756</ele>
        <time>2011-05-05T15:47:56Z</time>
      </trkpt>
      <trkpt lat="46.35634" lon="6.85547">
        <ele>797</ele>
        <time>2011-05-05T15:48:05Z</time>
      </trkpt>
      <trkpt lat="46.35661" lon="6.85533">
        <ele>800.2000122</ele>
        <time>2011-05-05T15:48:19Z</time>
      </trkpt>
      <trkpt lat="46.35665" lon="6.85531">
        <ele>800.2000122</ele>
        <time>2011-05-05T15:48:21Z</time>
      </trkpt>
      <trkpt lat="46.35685" lon="6.85546">
        <ele>802.2000122</ele>
        <time>2011-05-05T15:48:34Z</time>
      </trkpt>
      <trkpt lat="46.35694" lon="6.85557">
        <ele>802.5999756</ele>
        <time>2011-05-05T15:48:40Z</time>
      </trkpt>
      <trkpt lat="46.35709" lon="6.85545">
        <ele>805.2000122</ele>
        <time>2011-05-05T15:48:51Z</time>
      </trkpt>
      <trkpt lat="46.35724" lon="6.85521">
        <ele>807.2000122</ele>
        <time>2011-05-05T15:49:04Z</time>
      </trkpt>
      <trkpt lat="46.35728" lon="6.85516">
        <ele>808.4000244</ele>
        <time>2011-05-05T15:49:07Z</time>
      </trkpt>
      <trkpt lat="46.3574" lon="6.85505">
        <ele>809.4000244</ele>
        <time>2011-05-05T15:49:15Z</time>
      </trkpt>
      <trkpt lat="46.3576" lon="6.85497">
        <ele>811</ele>
        <time>2011-05-05T15:49:28Z</time>
      </trkpt>
      <trkpt lat="46.35762" lon="6.85499">
        <ele>811.5999756</ele>
        <time>2011-05-05T15:49:30Z</time>
      </trkpt>
      <trkpt lat="46.35774" lon="6.85528">
        <ele>814.5999756</ele>
        <time>2011-05-05T15:49:43Z</time>
      </trkpt>
      <trkpt lat="46.35785" lon="6.85559">
        <ele>816.5999756</ele>
        <time>2011-05-05T15:49:59Z</time>
      </trkpt>
      <trkpt lat="46.35799" lon="6.85586">
        <ele>818.5999756</ele>
        <time>2011-05-05T15:50:12Z</time>
      </trkpt>
      <trkpt lat="46.35806" lon="6.85617">
        <ele>821.4000244</ele>
        <time>2011-05-05T15:50:24Z</time>
      </trkpt>
      <trkpt lat="46.35807" lon="6.85618">
        <ele>821.5999756</ele>
        <time>2011-05-05T15:50:25Z</time>
      </trkpt>
      <trkpt lat="46.35817" lon="6.85624">
        <ele>823</ele>
        <time>2011-05-05T15:50:32Z</time>
      </trkpt>
      <trkpt lat="46.35818" lon="6.85626">
        <ele>823.4000244</ele>
        <time>2011-05-05T15:50:33Z</time>
      </trkpt>
      <trkpt lat="46.35824" lon="6.85632">
        <ele>825.2000122</ele>
        <time>2011-05-05T15:50:37Z</time>
      </trkpt>
      <trkpt lat="46.35843" lon="6.85617">
        <ele>826.4000244</ele>
        <time>2011-05-05T15:50:49Z</time>
      </trkpt>
      <trkpt lat="46.35859" lon="6.85616">
        <ele>828.5999756</ele>
        <time>2011-05-05T15:51:00Z</time>
      </trkpt>
      <trkpt lat="46.35876" lon="6.8563">
        <ele>830.5999756</ele>
        <time>2011-05-05T15:51:12Z</time>
      </trkpt>
      <trkpt lat="46.35884" lon="6.85642">
        <ele>831.5999756</ele>
        <time>2011-05-05T15:51:19Z</time>
      </trkpt>
      <trkpt lat="46.35888" lon="6.85651">
        <ele>833</ele>
        <time>2011-05-05T15:51:22Z</time>
      </trkpt>
      <trkpt lat="46.35894" lon="6.85664">
        <ele>833.5999756</ele>
        <time>2011-05-05T15:51:30Z</time>
      </trkpt>
      <trkpt lat="46.35904" lon="6.85692">
        <ele>836.4000244</ele>
        <time>2011-05-05T15:51:41Z</time>
      </trkpt>
      <trkpt lat="46.3591" lon="6.85707">
        <ele>837.4000244</ele>
        <time>2011-05-05T15:51:48Z</time>
      </trkpt>
      <trkpt lat="46.35919" lon="6.8571">
        <ele>838</ele>
        <time>2011-05-05T15:51:54Z</time>
      </trkpt>
      <trkpt lat="46.35944" lon="6.85697">
        <ele>841</ele>
        <time>2011-05-05T15:52:09Z</time>
      </trkpt>
      <trkpt lat="46.35946" lon="6.85694">
        <ele>841.5999756</ele>
        <time>2011-05-05T15:52:11Z</time>
      </trkpt>
      <trkpt lat="46.35961" lon="6.85694">
        <ele>842.2000122</ele>
        <time>2011-05-05T15:52:19Z</time>
      </trkpt>
      <trkpt lat="46.35975" lon="6.85694">
        <ele>844</ele>
        <time>2011-05-05T15:52:26Z</time>
      </trkpt>
      <trkpt lat="46.35977" lon="6.85687">
        <ele>844.5999756</ele>
        <time>2011-05-05T15:52:30Z</time>
      </trkpt>
      <trkpt lat="46.3596" lon="6.85685">
        <ele>846.4000244</ele>
        <time>2011-05-05T15:52:42Z</time>
      </trkpt>
      <trkpt lat="46.35954" lon="6.85687">
        <ele>848.2000122</ele>
        <time>2011-05-05T15:52:46Z</time>
      </trkpt>
      <trkpt lat="46.35948" lon="6.85687">
        <ele>848.2000122</ele>
        <time>2011-05-05T15:52:50Z</time>
      </trkpt>
      <trkpt lat="46.35927" lon="6.85685">
        <ele>850.4000244</ele>
        <time>2011-05-05T15:53:02Z</time>
      </trkpt>
      <trkpt lat="46.35911" lon="6.85654">
        <ele>853.4000244</ele>
        <time>2011-05-05T15:53:17Z</time>
      </trkpt>
      <trkpt lat="46.35907" lon="6.85628">
        <ele>856.4000244</ele>
        <time>2011-05-05T15:53:29Z</time>
      </trkpt>
      <trkpt lat="46.35899" lon="6.85603">
        <ele>857</ele>
        <time>2011-05-05T15:53:39Z</time>
      </trkpt>
      <trkpt lat="46.35885" lon="6.85581">
        <ele>859.4000244</ele>
        <time>2011-05-05T15:53:50Z</time>
      </trkpt>
      <trkpt lat="46.35884" lon="6.85566">
        <ele>860.4000244</ele>
        <time>2011-05-05T15:53:56Z</time>
      </trkpt>
      <trkpt lat="46.35879" lon="6.85544">
        <ele>862.5999756</ele>
        <time>2011-05-05T15:54:06Z</time>
      </trkpt>
      <trkpt lat="46.35877" lon="6.85541">
        <ele>862.5999756</ele>
        <time>2011-05-05T15:54:08Z</time>
      </trkpt>
      <trkpt lat="46.35863" lon="6.85516">
        <ele>864.5999756</ele>
        <time>2011-05-05T15:54:20Z</time>
      </trkpt>
      <trkpt lat="46.35859" lon="6.8551">
        <ele>866.2000122</ele>
        <time>2011-05-05T15:54:38Z</time>
      </trkpt>
      <trkpt lat="46.35859" lon="6.85511">
        <ele>866.4000244</ele>
        <time>2011-05-05T15:54:39Z</time>
      </trkpt>
      <trkpt lat="46.35856" lon="6.85511">
        <ele>867</ele>
        <time>2011-05-05T15:54:50Z</time>
      </trkpt>
      <trkpt lat="46.35838" lon="6.85496">
        <ele>868.4000244</ele>
        <time>2011-05-05T15:55:02Z</time>
      </trkpt>
      <trkpt lat="46.35836" lon="6.85493">
        <ele>869</ele>
        <time>2011-05-05T15:55:03Z</time>
      </trkpt>
      <trkpt lat="46.35835" lon="6.85476">
        <ele>869</ele>
        <time>2011-05-05T15:55:09Z</time>
      </trkpt>
      <trkpt lat="46.35834" lon="6.85469">
        <ele>869.4000244</ele>
        <time>2011-05-05T15:55:12Z</time>
      </trkpt>
      <trkpt lat="46.35829" lon="6.8544">
        <ele>871.4000244</ele>
        <time>2011-05-05T15:55:23Z</time>
      </trkpt>
      <trkpt lat="46.3582" lon="6.85416">
        <ele>874.4000244</ele>
        <time>2011-05-05T15:55:35Z</time>
      </trkpt>
      <trkpt lat="46.35815" lon="6.85385">
        <ele>877.4000244</ele>
        <time>2011-05-05T15:55:46Z</time>
      </trkpt>
      <trkpt lat="46.35806" lon="6.8536">
        <ele>878.4000244</ele>
        <time>2011-05-05T15:55:57Z</time>
      </trkpt>
      <trkpt lat="46.35788" lon="6.85334">
        <ele>881.2000122</ele>
        <time>2011-05-05T15:56:11Z</time>
      </trkpt>
      <trkpt lat="46.35787" lon="6.85332">
        <ele>881.4000244</ele>
        <time>2011-05-05T15:56:12Z</time>
      </trkpt>
      <trkpt lat="46.35776" lon="6.85327">
        <ele>882</ele>
        <time>2011-05-05T15:56:20Z</time>
      </trkpt>
      <trkpt lat="46.35759" lon="6.85335">
        <ele>883.5999756</ele>
        <time>2011-05-05T15:56:30Z</time>
      </trkpt>
      <trkpt lat="46.35739" lon="6.85317">
        <ele>886</ele>
        <time>2011-05-05T15:56:41Z</time>
      </trkpt>
      <trkpt lat="46.35718" lon="6.85285">
        <ele>888.4000244</ele>
        <time>2011-05-05T15:56:58Z</time>
      </trkpt>
      <trkpt lat="46.35701" lon="6.85272">
        <ele>890.4000244</ele>
        <time>2011-05-05T15:57:09Z</time>
      </trkpt>
      <trkpt lat="46.35715" lon="6.85269">
        <ele>892.4000244</ele>
        <time>2011-05-05T15:57:17Z</time>
      </trkpt>
      <trkpt lat="46.35723" lon="6.85273">
        <ele>892.5999756</ele>
        <time>2011-05-05T15:57:22Z</time>
      </trkpt>
      <trkpt lat="46.3574" lon="6.85281">
        <ele>894.5999756</ele>
        <time>2011-05-05T15:57:34Z</time>
      </trkpt>
      <trkpt lat="46.35759" lon="6.85283">
        <ele>897.4000244</ele>
        <time>2011-05-05T15:57:45Z</time>
      </trkpt>
      <trkpt lat="46.35787" lon="6.85271">
        <ele>899</ele>
        <time>2011-05-05T15:57:59Z</time>
      </trkpt>
      <trkpt lat="46.35805" lon="6.85293">
        <ele>901.2000122</ele>
        <time>2011-05-05T15:58:11Z</time>
      </trkpt>
      <trkpt lat="46.35826" lon="6.85318">
        <ele>904.2000122</ele>
        <time>2011-05-05T15:58:26Z</time>
      </trkpt>
      <trkpt lat="46.3584" lon="6.85334">
        <ele>906.2000122</ele>
        <time>2011-05-05T15:58:37Z</time>
      </trkpt>
      <trkpt lat="46.35847" lon="6.85342">
        <ele>907</ele>
        <time>2011-05-05T15:58:41Z</time>
      </trkpt>
      <trkpt lat="46.35864" lon="6.85359">
        <ele>909.2000122</ele>
        <time>2011-05-05T15:58:51Z</time>
      </trkpt>
      <trkpt lat="46.35877" lon="6.85374">
        <ele>910</ele>
        <time>2011-05-05T15:59:00Z</time>
      </trkpt>
      <trkpt lat="46.35894" lon="6.85395">
        <ele>913</ele>
        <time>2011-05-05T15:59:13Z</time>
      </trkpt>
      <trkpt lat="46.35895" lon="6.85395">
        <ele>913.4000244</ele>
        <time>2011-05-05T15:59:14Z</time>
      </trkpt>
      <trkpt lat="46.35905" lon="6.85414">
        <ele>913.4000244</ele>
        <time>2011-05-05T15:59:21Z</time>
      </trkpt>
      <trkpt lat="46.35912" lon="6.85446">
        <ele>916</ele>
        <time>2011-05-05T15:59:35Z</time>
      </trkpt>
      <trkpt lat="46.35919" lon="6.85478">
        <ele>918.4000244</ele>
        <time>2011-05-05T15:59:47Z</time>
      </trkpt>
      <trkpt lat="46.3593" lon="6.8551">
        <ele>921</ele>
        <time>2011-05-05T15:59:59Z</time>
      </trkpt>
      <trkpt lat="46.35949" lon="6.85527">
        <ele>923</ele>
        <time>2011-05-05T16:00:11Z</time>
      </trkpt>
      <trkpt lat="46.35966" lon="6.85534">
        <ele>924.4000244</ele>
        <time>2011-05-05T16:00:21Z</time>
      </trkpt>
      <trkpt lat="46.35989" lon="6.85549">
        <ele>926.4000244</ele>
        <time>2011-05-05T16:00:35Z</time>
      </trkpt>
      <trkpt lat="46.36013" lon="6.85558">
        <ele>929.4000244</ele>
        <time>2011-05-05T16:00:48Z</time>
      </trkpt>
      <trkpt lat="46.36048" lon="6.85562">
        <ele>932.2000122</ele>
        <time>2011-05-05T16:01:06Z</time>
      </trkpt>
      <trkpt lat="46.36068" lon="6.85587">
        <ele>935.2000122</ele>
        <time>2011-05-05T16:01:21Z</time>
      </trkpt>
      <trkpt lat="46.3607" lon="6.85588">
        <ele>936</ele>
        <time>2011-05-05T16:01:23Z</time>
      </trkpt>
      <trkpt lat="46.36071" lon="6.85589">
        <ele>936.4000244</ele>
        <time>2011-05-05T16:01:24Z</time>
      </trkpt>
      <trkpt lat="46.36096" lon="6.85609">
        <ele>938.4000244</ele>
        <time>2011-05-05T16:01:42Z</time>
      </trkpt>
      <trkpt lat="46.36105" lon="6.85616">
        <ele>940.2000122</ele>
        <time>2011-05-05T16:01:47Z</time>
      </trkpt>
      <trkpt lat="46.36125" lon="6.85625">
        <ele>940.4000244</ele>
        <time>2011-05-05T16:01:56Z</time>
      </trkpt>
      <trkpt lat="46.36128" lon="6.85628">
        <ele>941.5999756</ele>
        <time>2011-05-05T16:01:59Z</time>
      </trkpt>
      <trkpt lat="46.36143" lon="6.85627">
        <ele>943.4000244</ele>
        <time>2011-05-05T16:02:07Z</time>
      </trkpt>
      <trkpt lat="46.36163" lon="6.85611">
        <ele>945</ele>
        <time>2011-05-05T16:02:18Z</time>
      </trkpt>
      <trkpt lat="46.36169" lon="6.85608">
        <ele>945.5999756</ele>
        <time>2011-05-05T16:02:21Z</time>
      </trkpt>
      <trkpt lat="46.36176" lon="6.8561">
        <ele>947</ele>
        <time>2011-05-05T16:02:24Z</time>
      </trkpt>
      <trkpt lat="46.36185" lon="6.8562">
        <ele>947</ele>
        <time>2011-05-05T16:02:30Z</time>
      </trkpt>
      <trkpt lat="46.36198" lon="6.85642">
        <ele>949</ele>
        <time>2011-05-05T16:02:42Z</time>
      </trkpt>
      <trkpt lat="46.36216" lon="6.85646">
        <ele>951.2000122</ele>
        <time>2011-05-05T16:02:54Z</time>
      </trkpt>
      <trkpt lat="46.36236" lon="6.85669">
        <ele>953.5999756</ele>
        <time>2011-05-05T16:03:08Z</time>
      </trkpt>
      <trkpt lat="46.36238" lon="6.85678">
        <ele>955.2000122</ele>
        <time>2011-05-05T16:03:11Z</time>
      </trkpt>
      <trkpt lat="46.36257" lon="6.85723">
        <ele>957.5999756</ele>
        <time>2011-05-05T16:03:31Z</time>
      </trkpt>
      <trkpt lat="46.36268" lon="6.85751">
        <ele>960.5999756</ele>
        <time>2011-05-05T16:03:44Z</time>
      </trkpt>
      <trkpt lat="46.36284" lon="6.85781">
        <ele>964</ele>
        <time>2011-05-05T16:03:59Z</time>
      </trkpt>
      <trkpt lat="46.36301" lon="6.85825">
        <ele>966.5999756</ele>
        <time>2011-05-05T16:04:18Z</time>
      </trkpt>
      <trkpt lat="46.36303" lon="6.85831">
        <ele>968</ele>
        <time>2011-05-05T16:04:21Z</time>
      </trkpt>
      <trkpt lat="46.36322" lon="6.8586">
        <ele>970.4000244</ele>
        <time>2011-05-05T16:04:39Z</time>
      </trkpt>
      <trkpt lat="46.36338" lon="6.85869">
        <ele>973.4000244</ele>
        <time>2011-05-05T16:04:52Z</time>
      </trkpt>
      <trkpt lat="46.36339" lon="6.85869">
        <ele>974.5999756</ele>
        <time>2011-05-05T16:06:02Z</time>
      </trkpt>
      <trkpt lat="46.36338" lon="6.8587">
        <ele>974.5999756</ele>
        <time>2011-05-05T16:06:18Z</time>
      </trkpt>
      <trkpt lat="46.36334" lon="6.85867">
        <ele>974.5999756</ele>
        <time>2011-05-05T16:06:22Z</time>
      </trkpt>
      <trkpt lat="46.36321" lon="6.85854">
        <ele>974.5999756</ele>
        <time>2011-05-05T16:06:31Z</time>
      </trkpt>
      <trkpt lat="46.36311" lon="6.85829">
        <ele>977</ele>
        <time>2011-05-05T16:06:42Z</time>
      </trkpt>
      <trkpt lat="46.36303" lon="6.85783">
        <ele>980.2000122</ele>
        <time>2011-05-05T16:07:00Z</time>
      </trkpt>
      <trkpt lat="46.36296" lon="6.85751">
        <ele>983.2000122</ele>
        <time>2011-05-05T16:07:13Z</time>
      </trkpt>
      <trkpt lat="46.36286" lon="6.85706">
        <ele>985.4000244</ele>
        <time>2011-05-05T16:07:32Z</time>
      </trkpt>
      <trkpt lat="46.36283" lon="6.85676">
        <ele>988.5999756</ele>
        <time>2011-05-05T16:07:44Z</time>
      </trkpt>
      <trkpt lat="46.36284" lon="6.85656">
        <ele>989.4000244</ele>
        <time>2011-05-05T16:07:53Z</time>
      </trkpt>
      <trkpt lat="46.36282" lon="6.85623">
        <ele>992.4000244</ele>
        <time>2011-05-05T16:08:05Z</time>
      </trkpt>
      <trkpt lat="46.36279" lon="6.85583">
        <ele>995.4000244</ele>
        <time>2011-05-05T16:08:21Z</time>
      </trkpt>
      <trkpt lat="46.36252" lon="6.85543">
        <ele>998</ele>
        <time>2011-05-05T16:08:44Z</time>
      </trkpt>
      <trkpt lat="46.3624" lon="6.85537">
        <ele>999.4000244</ele>
        <time>2011-05-05T16:08:51Z</time>
      </trkpt>
      <trkpt lat="46.36227" lon="6.85502">
        <ele>1002.4000244</ele>
        <time>2011-05-05T16:09:05Z</time>
      </trkpt>
      <trkpt lat="46.36218" lon="6.8547">
        <ele>1005.4000244</ele>
        <time>2011-05-05T16:09:18Z</time>
      </trkpt>
      <trkpt lat="46.36193" lon="6.85454">
        <ele>1008</ele>
        <time>2011-05-05T16:09:37Z</time>
      </trkpt>
      <trkpt lat="46.36193" lon="6.85454">
        <ele>1010</ele>
        <time>2011-05-05T16:11:05Z</time>
      </trkpt>
      <trkpt lat="46.36185" lon="6.85455">
        <ele>1010</ele>
        <time>2011-05-05T16:11:10Z</time>
      </trkpt>
      <trkpt lat="46.36142" lon="6.85439">
        <ele>1013.2000122</ele>
        <time>2011-05-05T16:11:32Z</time>
      </trkpt>
      <trkpt lat="46.36125" lon="6.85415">
        <ele>1016.2000122</ele>
        <time>2011-05-05T16:11:45Z</time>
      </trkpt>
      <trkpt lat="46.36097" lon="6.85383">
        <ele>1019</ele>
        <time>2011-05-05T16:12:06Z</time>
      </trkpt>
      <trkpt lat="46.3608" lon="6.85383">
        <ele>1022</ele>
        <time>2011-05-05T16:12:15Z</time>
      </trkpt>
      <trkpt lat="46.36057" lon="6.85378">
        <ele>1025</ele>
        <time>2011-05-05T16:12:30Z</time>
      </trkpt>
      <trkpt lat="46.36027" lon="6.85364">
        <ele>1027.4000244</ele>
        <time>2011-05-05T16:12:49Z</time>
      </trkpt>
      <trkpt lat="46.3602" lon="6.85326">
        <ele>1030.8000488</ele>
        <time>2011-05-05T16:13:05Z</time>
      </trkpt>
      <trkpt lat="46.3602" lon="6.85324">
        <ele>1031</ele>
        <time>2011-05-05T16:13:06Z</time>
      </trkpt>
      <trkpt lat="46.36015" lon="6.85283">
        <ele>1033.4000244</ele>
        <time>2011-05-05T16:13:23Z</time>
      </trkpt>
      <trkpt lat="46.36015" lon="6.85251">
        <ele>1036.8000488</ele>
        <time>2011-05-05T16:13:34Z</time>
      </trkpt>
      <trkpt lat="46.36014" lon="6.85214">
        <ele>1039.8000488</ele>
        <time>2011-05-05T16:13:50Z</time>
      </trkpt>
      <trkpt lat="46.35997" lon="6.85172">
        <ele>1042</ele>
        <time>2011-05-05T16:14:08Z</time>
      </trkpt>
      <trkpt lat="46.35985" lon="6.8515">
        <ele>1045.4000244</ele>
        <time>2011-05-05T16:14:22Z</time>
      </trkpt>
      <trkpt lat="46.35972" lon="6.85141">
        <ele>1046</ele>
        <time>2011-05-05T16:14:30Z</time>
      </trkpt>
      <trkpt lat="46.35949" lon="6.85139">
        <ele>1049</ele>
        <time>2011-05-05T16:14:43Z</time>
      </trkpt>
      <trkpt lat="46.3593" lon="6.85117">
        <ele>1052</ele>
        <time>2011-05-05T16:14:56Z</time>
      </trkpt>
      <trkpt lat="46.35916" lon="6.85083">
        <ele>1054.8000488</ele>
        <time>2011-05-05T16:15:12Z</time>
      </trkpt>
      <trkpt lat="46.35904" lon="6.85049">
        <ele>1057</ele>
        <time>2011-05-05T16:15:26Z</time>
      </trkpt>
      <trkpt lat="46.35895" lon="6.85032">
        <ele>1059</ele>
        <time>2011-05-05T16:15:35Z</time>
      </trkpt>
      <trkpt lat="46.3588" lon="6.84999">
        <ele>1061.8000488</ele>
        <time>2011-05-05T16:15:49Z</time>
      </trkpt>
      <trkpt lat="46.35866" lon="6.84986">
        <ele>1063</ele>
        <time>2011-05-05T16:15:58Z</time>
      </trkpt>
      <trkpt lat="46.35855" lon="6.84983">
        <ele>1064.8000488</ele>
        <time>2011-05-05T16:16:04Z</time>
      </trkpt>
      <trkpt lat="46.35867" lon="6.84973">
        <ele>1065.4000244</ele>
        <time>2011-05-05T16:16:15Z</time>
      </trkpt>
      <trkpt lat="46.35892" lon="6.84996">
        <ele>1067.8000488</ele>
        <time>2011-05-05T16:16:30Z</time>
      </trkpt>
      <trkpt lat="46.35915" lon="6.85027">
        <ele>1070.4000244</ele>
        <time>2011-05-05T16:16:44Z</time>
      </trkpt>
      <trkpt lat="46.35933" lon="6.85057">
        <ele>1072</ele>
        <time>2011-05-05T16:16:55Z</time>
      </trkpt>
      <trkpt lat="46.35964" lon="6.85061">
        <ele>1074</ele>
        <time>2011-05-05T16:17:07Z</time>
      </trkpt>
      <trkpt lat="46.36001" lon="6.85091">
        <ele>1076.4000244</ele>
        <time>2011-05-05T16:17:24Z</time>
      </trkpt>
      <trkpt lat="46.36013" lon="6.85098">
        <ele>1077.4000244</ele>
        <time>2011-05-05T16:17:27Z</time>
      </trkpt>
      <trkpt lat="46.36027" lon="6.85102">
        <ele>1078</ele>
        <time>2011-05-05T16:17:31Z</time>
      </trkpt>
      <trkpt lat="46.36062" lon="6.85167">
        <ele>1078</ele>
        <time>2011-05-05T16:17:47Z</time>
      </trkpt>
      <trkpt lat="46.36065" lon="6.85177">
        <ele>1079</ele>
        <time>2011-05-05T16:17:49Z</time>
      </trkpt>
      <trkpt lat="46.36068" lon="6.85218">
        <ele>1080</ele>
        <time>2011-05-05T16:17:58Z</time>
      </trkpt>
      <trkpt lat="46.36094" lon="6.85249">
        <ele>1081.8000488</ele>
        <time>2011-05-05T16:18:08Z</time>
      </trkpt>
      <trkpt lat="46.36103" lon="6.85245">
        <ele>1082</ele>
        <time>2011-05-05T16:19:08Z</time>
      </trkpt>
      <trkpt lat="46.36121" lon="6.85239">
        <ele>1082</ele>
        <time>2011-05-05T16:19:19Z</time>
      </trkpt>
      <trkpt lat="46.36187" lon="6.85246">
        <ele>1084.4000244</ele>
        <time>2011-05-05T16:19:45Z</time>
      </trkpt>
      <trkpt lat="46.36255" lon="6.85267">
        <ele>1086.4000244</ele>
        <time>2011-05-05T16:20:08Z</time>
      </trkpt>
      <trkpt lat="46.36312" lon="6.85333">
        <ele>1088.4000244</ele>
        <time>2011-05-05T16:20:32Z</time>
      </trkpt>
      <trkpt lat="46.36352" lon="6.85362">
        <ele>1088.4000244</ele>
        <time>2011-05-05T16:20:47Z</time>
      </trkpt>
      <trkpt lat="46.36357" lon="6.85379">
        <ele>1089.4000244</ele>
        <time>2011-05-05T16:20:51Z</time>
      </trkpt>
      <trkpt lat="46.36365" lon="6.85405">
        <ele>1090.8000488</ele>
        <time>2011-05-05T16:20:57Z</time>
      </trkpt>
      <trkpt lat="46.36414" lon="6.85474">
        <ele>1092.8000488</ele>
        <time>2011-05-05T16:21:17Z</time>
      </trkpt>
      <trkpt lat="46.36428" lon="6.8549">
        <ele>1092.8000488</ele>
        <time>2011-05-05T16:21:22Z</time>
      </trkpt>
      <trkpt lat="46.36465" lon="6.85486">
        <ele>1094.8000488</ele>
        <time>2011-05-05T16:21:34Z</time>
      </trkpt>
      <trkpt lat="46.36512" lon="6.85489">
        <ele>1097.4000244</ele>
        <time>2011-05-05T16:21:49Z</time>
      </trkpt>
      <trkpt lat="46.3655" lon="6.85498">
        <ele>1100.4000244</ele>
        <time>2011-05-05T16:22:01Z</time>
      </trkpt>
      <trkpt lat="46.36576" lon="6.85519">
        <ele>1103</ele>
        <time>2011-05-05T16:22:13Z</time>
      </trkpt>
      <trkpt lat="46.36596" lon="6.85503">
        <ele>1103</ele>
        <time>2011-05-05T16:22:26Z</time>
      </trkpt>
      <trkpt lat="46.36597" lon="6.85503">
        <ele>1103</ele>
        <time>2011-05-05T16:26:49Z</time>
      </trkpt>
      <trkpt lat="46.36612" lon="6.85482">
        <ele>1103</ele>
        <time>2011-05-05T16:26:58Z</time>
      </trkpt>
      <trkpt lat="46.36638" lon="6.85429">
        <ele>1101</ele>
        <time>2011-05-05T16:27:11Z</time>
      </trkpt>
      <trkpt lat="46.36647" lon="6.85409">
        <ele>1098</ele>
        <time>2011-05-05T16:27:16Z</time>
      </trkpt>
      <trkpt lat="46.36657" lon="6.85402">
        <ele>1095</ele>
        <time>2011-05-05T16:27:20Z</time>
      </trkpt>
      <trkpt lat="46.3667" lon="6.85387">
        <ele>1092</ele>
        <time>2011-05-05T16:27:24Z</time>
      </trkpt>
      <trkpt lat="46.36683" lon="6.85378">
        <ele>1089</ele>
        <time>2011-05-05T16:27:28Z</time>
      </trkpt>
      <trkpt lat="46.36689" lon="6.85375">
        <ele>1086.8000488</ele>
        <time>2011-05-05T16:27:30Z</time>
      </trkpt>
      <trkpt lat="46.367" lon="6.85359">
        <ele>1086.8000488</ele>
        <time>2011-05-05T16:27:57Z</time>
      </trkpt>
      <trkpt lat="46.36703" lon="6.85334">
        <ele>1085</ele>
        <time>2011-05-05T16:28:02Z</time>
      </trkpt>
      <trkpt lat="46.36694" lon="6.85305">
        <ele>1081.4000244</ele>
        <time>2011-05-05T16:28:07Z</time>
      </trkpt>
      <trkpt lat="46.3669" lon="6.85283">
        <ele>1078</ele>
        <time>2011-05-05T16:28:12Z</time>
      </trkpt>
      <trkpt lat="46.36689" lon="6.85262">
        <ele>1075</ele>
        <time>2011-05-05T16:28:18Z</time>
      </trkpt>
      <trkpt lat="46.3669" lon="6.85257">
        <ele>1073.8000488</ele>
        <time>2011-05-05T16:28:20Z</time>
      </trkpt>
      <trkpt lat="46.36691" lon="6.85245">
        <ele>1071.4000244</ele>
        <time>2011-05-05T16:28:32Z</time>
      </trkpt>
      <trkpt lat="46.36698" lon="6.85239">
        <ele>1070</ele>
        <time>2011-05-05T16:28:35Z</time>
      </trkpt>
      <trkpt lat="46.367" lon="6.85234">
        <ele>1070</ele>
        <time>2011-05-05T16:28:38Z</time>
      </trkpt>
      <trkpt lat="46.36706" lon="6.8523">
        <ele>1070</ele>
        <time>2011-05-05T16:28:55Z</time>
      </trkpt>
      <trkpt lat="46.36712" lon="6.85225">
        <ele>1068</ele>
        <time>2011-05-05T16:29:12Z</time>
      </trkpt>
      <trkpt lat="46.36713" lon="6.85223">
        <ele>1068</ele>
        <time>2011-05-05T16:29:24Z</time>
      </trkpt>
      <trkpt lat="46.36713" lon="6.85229">
        <ele>1067.4000244</ele>
        <time>2011-05-05T16:29:28Z</time>
      </trkpt>
      <trkpt lat="46.36712" lon="6.85232">
        <ele>1066.4000244</ele>
        <time>2011-05-05T16:29:31Z</time>
      </trkpt>
      <trkpt lat="46.36705" lon="6.85233">
        <ele>1066</ele>
        <time>2011-05-05T16:29:39Z</time>
      </trkpt>
      <trkpt lat="46.36709" lon="6.85235">
        <ele>1066</ele>
        <time>2011-05-05T16:29:45Z</time>
      </trkpt>
      <trkpt lat="46.3671" lon="6.85233">
        <ele>1066</ele>
        <time>2011-05-05T16:29:49Z</time>
      </trkpt>
      <trkpt lat="46.36712" lon="6.85259">
        <ele>1063.4000244</ele>
        <time>2011-05-05T16:29:57Z</time>
      </trkpt>
      <trkpt lat="46.36717" lon="6.85273">
        <ele>1060.4000244</ele>
        <time>2011-05-05T16:30:03Z</time>
      </trkpt>
      <trkpt lat="46.36721" lon="6.85273">
        <ele>1059.4000244</ele>
        <time>2011-05-05T16:30:05Z</time>
      </trkpt>
      <trkpt lat="46.36729" lon="6.85262">
        <ele>1057.8000488</ele>
        <time>2011-05-05T16:30:11Z</time>
      </trkpt>
      <trkpt lat="46.36728" lon="6.85256">
        <ele>1057.4000244</ele>
        <time>2011-05-05T16:30:22Z</time>
      </trkpt>
      <trkpt lat="46.36728" lon="6.85254">
        <ele>1057</ele>
        <time>2011-05-05T16:30:27Z</time>
      </trkpt>
      <trkpt lat="46.36736" lon="6.85236">
        <ele>1054</ele>
        <time>2011-05-05T16:30:33Z</time>
      </trkpt>
      <trkpt lat="46.36744" lon="6.85222">
        <ele>1051.4000244</ele>
        <time>2011-05-05T16:30:38Z</time>
      </trkpt>
      <trkpt lat="46.36752" lon="6.85206">
        <ele>1048</ele>
        <time>2011-05-05T16:30:43Z</time>
      </trkpt>
      <trkpt lat="46.36759" lon="6.85199">
        <ele>1046</ele>
        <time>2011-05-05T16:30:46Z</time>
      </trkpt>
      <trkpt lat="46.36767" lon="6.85201">
        <ele>1043</ele>
        <time>2011-05-05T16:30:49Z</time>
      </trkpt>
      <trkpt lat="46.36764" lon="6.85226">
        <ele>1040</ele>
        <time>2011-05-05T16:30:57Z</time>
      </trkpt>
      <trkpt lat="46.36764" lon="6.85232">
        <ele>1039.4000244</ele>
        <time>2011-05-05T16:30:58Z</time>
      </trkpt>
      <trkpt lat="46.36761" lon="6.85262">
        <ele>1036.4000244</ele>
        <time>2011-05-05T16:31:03Z</time>
      </trkpt>
      <trkpt lat="46.36757" lon="6.85268">
        <ele>1034</ele>
        <time>2011-05-05T16:31:06Z</time>
      </trkpt>
      <trkpt lat="46.36756" lon="6.85259">
        <ele>1033.8000488</ele>
        <time>2011-05-05T16:31:08Z</time>
      </trkpt>
      <trkpt lat="46.36771" lon="6.85234">
        <ele>1030.4000244</ele>
        <time>2011-05-05T16:31:15Z</time>
      </trkpt>
      <trkpt lat="46.36788" lon="6.85216">
        <ele>1027.4000244</ele>
        <time>2011-05-05T16:31:20Z</time>
      </trkpt>
      <trkpt lat="46.368" lon="6.85199">
        <ele>1024.4000244</ele>
        <time>2011-05-05T16:31:25Z</time>
      </trkpt>
      <trkpt lat="46.36808" lon="6.85195">
        <ele>1022.4000244</ele>
        <time>2011-05-05T16:31:28Z</time>
      </trkpt>
      <trkpt lat="46.36811" lon="6.85194">
        <ele>1022.2000122</ele>
        <time>2011-05-05T16:31:29Z</time>
      </trkpt>
      <trkpt lat="46.36813" lon="6.85193">
        <ele>1021.2000122</ele>
        <time>2011-05-05T16:31:31Z</time>
      </trkpt>
      <trkpt lat="46.36811" lon="6.85193">
        <ele>1020.4000244</ele>
        <time>2011-05-05T16:31:33Z</time>
      </trkpt>
      <trkpt lat="46.36807" lon="6.8519">
        <ele>1020.4000244</ele>
        <time>2011-05-05T16:31:37Z</time>
      </trkpt>
      <trkpt lat="46.36806" lon="6.85194">
        <ele>1018.4000244</ele>
        <time>2011-05-05T16:31:42Z</time>
      </trkpt>
      <trkpt lat="46.36803" lon="6.85199">
        <ele>1018</ele>
        <time>2011-05-05T16:31:43Z</time>
      </trkpt>
      <trkpt lat="46.368" lon="6.85205">
        <ele>1017.4000244</ele>
        <time>2011-05-05T16:31:44Z</time>
      </trkpt>
      <trkpt lat="46.36788" lon="6.85225">
        <ele>1015.2000122</ele>
        <time>2011-05-05T16:31:48Z</time>
      </trkpt>
      <trkpt lat="46.36784" lon="6.8523">
        <ele>1014</ele>
        <time>2011-05-05T16:31:50Z</time>
      </trkpt>
      <trkpt lat="46.36776" lon="6.85254">
        <ele>1012</ele>
        <time>2011-05-05T16:31:57Z</time>
      </trkpt>
      <trkpt lat="46.3677" lon="6.85275">
        <ele>1008.5999756</ele>
        <time>2011-05-05T16:32:02Z</time>
      </trkpt>
      <trkpt lat="46.36768" lon="6.85286">
        <ele>1005.4000244</ele>
        <time>2011-05-05T16:32:08Z</time>
      </trkpt>
      <trkpt lat="46.36768" lon="6.85286">
        <ele>1005.2000122</ele>
        <time>2011-05-05T16:32:09Z</time>
      </trkpt>
      <trkpt lat="46.36777" lon="6.8527">
        <ele>1003.5999756</ele>
        <time>2011-05-05T16:32:15Z</time>
      </trkpt>
      <trkpt lat="46.36789" lon="6.85254">
        <ele>1000.4000244</ele>
        <time>2011-05-05T16:32:22Z</time>
      </trkpt>
      <trkpt lat="46.36791" lon="6.85252">
        <ele>1000.4000244</ele>
        <time>2011-05-05T16:32:23Z</time>
      </trkpt>
      <trkpt lat="46.36803" lon="6.85252">
        <ele>997.4000244</ele>
        <time>2011-05-05T16:32:29Z</time>
      </trkpt>
      <trkpt lat="46.36809" lon="6.85251">
        <ele>996.4000244</ele>
        <time>2011-05-05T16:32:32Z</time>
      </trkpt>
      <trkpt lat="46.36827" lon="6.85259">
        <ele>993.4000244</ele>
        <time>2011-05-05T16:32:39Z</time>
      </trkpt>
      <trkpt lat="46.36831" lon="6.85259">
        <ele>991.4000244</ele>
        <time>2011-05-05T16:32:51Z</time>
      </trkpt>
      <trkpt lat="46.3681" lon="6.85259">
        <ele>989.4000244</ele>
        <time>2011-05-05T16:32:59Z</time>
      </trkpt>
      <trkpt lat="46.36807" lon="6.85262">
        <ele>988.5999756</ele>
        <time>2011-05-05T16:33:00Z</time>
      </trkpt>
      <trkpt lat="46.36805" lon="6.85265">
        <ele>988.2000122</ele>
        <time>2011-05-05T16:33:01Z</time>
      </trkpt>
      <trkpt lat="46.36801" lon="6.85273">
        <ele>987</ele>
        <time>2011-05-05T16:33:03Z</time>
      </trkpt>
      <trkpt lat="46.36796" lon="6.85291">
        <ele>985</ele>
        <time>2011-05-05T16:33:06Z</time>
      </trkpt>
      <trkpt lat="46.36789" lon="6.85316">
        <ele>981.4000244</ele>
        <time>2011-05-05T16:33:11Z</time>
      </trkpt>
      <trkpt lat="46.36789" lon="6.85324">
        <ele>980</ele>
        <time>2011-05-05T16:33:13Z</time>
      </trkpt>
      <trkpt lat="46.36788" lon="6.85331">
        <ele>978.4000244</ele>
        <time>2011-05-05T16:33:18Z</time>
      </trkpt>
      <trkpt lat="46.36791" lon="6.85334">
        <ele>977.2000122</ele>
        <time>2011-05-05T16:33:21Z</time>
      </trkpt>
      <trkpt lat="46.36798" lon="6.85338">
        <ele>977.2000122</ele>
        <time>2011-05-05T16:33:39Z</time>
      </trkpt>
      <trkpt lat="46.36797" lon="6.85336">
        <ele>975.5999756</ele>
        <time>2011-05-05T16:33:45Z</time>
      </trkpt>
      <trkpt lat="46.36798" lon="6.85334">
        <ele>975.4000244</ele>
        <time>2011-05-05T16:33:46Z</time>
      </trkpt>
      <trkpt lat="46.36801" lon="6.8532">
        <ele>973.5999756</ele>
        <time>2011-05-05T16:33:50Z</time>
      </trkpt>
      <trkpt lat="46.36805" lon="6.85307">
        <ele>970.5999756</ele>
        <time>2011-05-05T16:33:56Z</time>
      </trkpt>
      <trkpt lat="46.36812" lon="6.85306">
        <ele>968.4000244</ele>
        <time>2011-05-05T16:34:08Z</time>
      </trkpt>
      <trkpt lat="46.36805" lon="6.85335">
        <ele>967</ele>
        <time>2011-05-05T16:34:17Z</time>
      </trkpt>
      <trkpt lat="46.36802" lon="6.85354">
        <ele>965.4000244</ele>
        <time>2011-05-05T16:34:23Z</time>
      </trkpt>
      <trkpt lat="46.36805" lon="6.85358">
        <ele>962.4000244</ele>
        <time>2011-05-05T16:34:30Z</time>
      </trkpt>
      <trkpt lat="46.36806" lon="6.85357">
        <ele>962.2000122</ele>
        <time>2011-05-05T16:34:31Z</time>
      </trkpt>
      <trkpt lat="46.36806" lon="6.85355">
        <ele>962.2000122</ele>
        <time>2011-05-05T16:34:32Z</time>
      </trkpt>
      <trkpt lat="46.36808" lon="6.85345">
        <ele>961</ele>
        <time>2011-05-05T16:34:36Z</time>
      </trkpt>
      <trkpt lat="46.36821" lon="6.85328">
        <ele>960</ele>
        <time>2011-05-05T16:34:47Z</time>
      </trkpt>
      <trkpt lat="46.36829" lon="6.85314">
        <ele>957</ele>
        <time>2011-05-05T16:34:57Z</time>
      </trkpt>
      <trkpt lat="46.36834" lon="6.85303">
        <ele>955.4000244</ele>
        <time>2011-05-05T16:35:00Z</time>
      </trkpt>
      <trkpt lat="46.36845" lon="6.8529">
        <ele>953.5999756</ele>
        <time>2011-05-05T16:35:04Z</time>
      </trkpt>
      <trkpt lat="46.36851" lon="6.85286">
        <ele>952.4000244</ele>
        <time>2011-05-05T16:35:09Z</time>
      </trkpt>
      <trkpt lat="46.36852" lon="6.85308">
        <ele>951.5999756</ele>
        <time>2011-05-05T16:35:16Z</time>
      </trkpt>
      <trkpt lat="46.36846" lon="6.85323">
        <ele>949.4000244</ele>
        <time>2011-05-05T16:35:20Z</time>
      </trkpt>
      <trkpt lat="46.36845" lon="6.8533">
        <ele>949.4000244</ele>
        <time>2011-05-05T16:35:21Z</time>
      </trkpt>
      <trkpt lat="46.36839" lon="6.85348">
        <ele>948.4000244</ele>
        <time>2011-05-05T16:35:24Z</time>
      </trkpt>
      <trkpt lat="46.36832" lon="6.8537">
        <ele>946.4000244</ele>
        <time>2011-05-05T16:35:28Z</time>
      </trkpt>
      <trkpt lat="46.3683" lon="6.85384">
        <ele>945.4000244</ele>
        <time>2011-05-05T16:35:30Z</time>
      </trkpt>
      <trkpt lat="46.36826" lon="6.85395">
        <ele>944.4000244</ele>
        <time>2011-05-05T16:35:32Z</time>
      </trkpt>
      <trkpt lat="46.36824" lon="6.85401">
        <ele>944</ele>
        <time>2011-05-05T16:35:33Z</time>
      </trkpt>
      <trkpt lat="46.3682" lon="6.85428">
        <ele>941.4000244</ele>
        <time>2011-05-05T16:35:38Z</time>
      </trkpt>
      <trkpt lat="46.3682" lon="6.85431">
        <ele>940.2000122</ele>
        <time>2011-05-05T16:35:40Z</time>
      </trkpt>
      <trkpt lat="46.36822" lon="6.85428">
        <ele>938.2000122</ele>
        <time>2011-05-05T16:35:43Z</time>
      </trkpt>
      <trkpt lat="46.36825" lon="6.85409">
        <ele>936.4000244</ele>
        <time>2011-05-05T16:35:49Z</time>
      </trkpt>
      <trkpt lat="46.36834" lon="6.85393">
        <ele>933.4000244</ele>
        <time>2011-05-05T16:35:55Z</time>
      </trkpt>
      <trkpt lat="46.36849" lon="6.85374">
        <ele>930.4000244</ele>
        <time>2011-05-05T16:36:01Z</time>
      </trkpt>
      <trkpt lat="46.36862" lon="6.85354">
        <ele>927.4000244</ele>
        <time>2011-05-05T16:36:06Z</time>
      </trkpt>
      <trkpt lat="46.36871" lon="6.85342">
        <ele>924.2000122</ele>
        <time>2011-05-05T16:36:10Z</time>
      </trkpt>
      <trkpt lat="46.36879" lon="6.85328">
        <ele>922.2000122</ele>
        <time>2011-05-05T16:36:14Z</time>
      </trkpt>
      <trkpt lat="46.36892" lon="6.85308">
        <ele>918.5999756</ele>
        <time>2011-05-05T16:36:20Z</time>
      </trkpt>
      <trkpt lat="46.36894" lon="6.85306">
        <ele>917.4000244</ele>
        <time>2011-05-05T16:36:28Z</time>
      </trkpt>
      <trkpt lat="46.36898" lon="6.85318">
        <ele>915.4000244</ele>
        <time>2011-05-05T16:36:34Z</time>
      </trkpt>
      <trkpt lat="46.36898" lon="6.85321">
        <ele>915.2000122</ele>
        <time>2011-05-05T16:36:35Z</time>
      </trkpt>
      <trkpt lat="46.36894" lon="6.85346">
        <ele>912.2000122</ele>
        <time>2011-05-05T16:36:41Z</time>
      </trkpt>
      <trkpt lat="46.36886" lon="6.85373">
        <ele>909.2000122</ele>
        <time>2011-05-05T16:36:47Z</time>
      </trkpt>
      <trkpt lat="46.36885" lon="6.85394">
        <ele>906.5999756</ele>
        <time>2011-05-05T16:37:01Z</time>
      </trkpt>
      <trkpt lat="46.36878" lon="6.85415">
        <ele>904.4000244</ele>
        <time>2011-05-05T16:37:17Z</time>
      </trkpt>
      <trkpt lat="46.36879" lon="6.85416">
        <ele>903.5999756</ele>
        <time>2011-05-05T16:37:18Z</time>
      </trkpt>
      <trkpt lat="46.36876" lon="6.85437">
        <ele>901.2000122</ele>
        <time>2011-05-05T16:37:23Z</time>
      </trkpt>
      <trkpt lat="46.36874" lon="6.85449">
        <ele>899.4000244</ele>
        <time>2011-05-05T16:37:26Z</time>
      </trkpt>
      <trkpt lat="46.36875" lon="6.85451">
        <ele>899.2000122</ele>
        <time>2011-05-05T16:37:27Z</time>
      </trkpt>
      <trkpt lat="46.36876" lon="6.85455">
        <ele>898.2000122</ele>
        <time>2011-05-05T16:37:30Z</time>
      </trkpt>
      <trkpt lat="46.36875" lon="6.85453">
        <ele>897.2000122</ele>
        <time>2011-05-05T16:37:32Z</time>
      </trkpt>
      <trkpt lat="46.36881" lon="6.85432">
        <ele>894</ele>
        <time>2011-05-05T16:37:39Z</time>
      </trkpt>
      <trkpt lat="46.36883" lon="6.85426">
        <ele>893.2000122</ele>
        <time>2011-05-05T16:37:41Z</time>
      </trkpt>
      <trkpt lat="46.36896" lon="6.85406">
        <ele>890.2000122</ele>
        <time>2011-05-05T16:37:48Z</time>
      </trkpt>
      <trkpt lat="46.36902" lon="6.85402">
        <ele>889.4000244</ele>
        <time>2011-05-05T16:37:50Z</time>
      </trkpt>
      <trkpt lat="46.36915" lon="6.8538">
        <ele>886.4000244</ele>
        <time>2011-05-05T16:37:56Z</time>
      </trkpt>
      <trkpt lat="46.36924" lon="6.85362">
        <ele>883.4000244</ele>
        <time>2011-05-05T16:38:01Z</time>
      </trkpt>
      <trkpt lat="46.36933" lon="6.85341">
        <ele>880.2000122</ele>
        <time>2011-05-05T16:38:08Z</time>
      </trkpt>
      <trkpt lat="46.36942" lon="6.85324">
        <ele>877</ele>
        <time>2011-05-05T16:38:13Z</time>
      </trkpt>
      <trkpt lat="46.36948" lon="6.85316">
        <ele>875.4000244</ele>
        <time>2011-05-05T16:38:16Z</time>
      </trkpt>
      <trkpt lat="46.3695" lon="6.85314">
        <ele>875</ele>
        <time>2011-05-05T16:38:17Z</time>
      </trkpt>
      <trkpt lat="46.36954" lon="6.85317">
        <ele>873.4000244</ele>
        <time>2011-05-05T16:38:20Z</time>
      </trkpt>
      <trkpt lat="46.36954" lon="6.85321">
        <ele>872.5999756</ele>
        <time>2011-05-05T16:38:22Z</time>
      </trkpt>
      <trkpt lat="46.36948" lon="6.85328">
        <ele>871.4000244</ele>
        <time>2011-05-05T16:38:33Z</time>
      </trkpt>
      <trkpt lat="46.36944" lon="6.85351">
        <ele>869.2000122</ele>
        <time>2011-05-05T16:38:38Z</time>
      </trkpt>
      <trkpt lat="46.36944" lon="6.85355">
        <ele>868.4000244</ele>
        <time>2011-05-05T16:38:39Z</time>
      </trkpt>
      <trkpt lat="46.36949" lon="6.8537">
        <ele>866.4000244</ele>
        <time>2011-05-05T16:38:44Z</time>
      </trkpt>
      <trkpt lat="46.36951" lon="6.85379">
        <ele>865.4000244</ele>
        <time>2011-05-05T16:38:46Z</time>
      </trkpt>
      <trkpt lat="46.36952" lon="6.85385">
        <ele>865.2000122</ele>
        <time>2011-05-05T16:38:47Z</time>
      </trkpt>
      <trkpt lat="46.36947" lon="6.85414">
        <ele>863</ele>
        <time>2011-05-05T16:38:51Z</time>
      </trkpt>
      <trkpt lat="46.36944" lon="6.85426">
        <ele>861.4000244</ele>
        <time>2011-05-05T16:38:53Z</time>
      </trkpt>
      <trkpt lat="46.36937" lon="6.85458">
        <ele>858</ele>
        <time>2011-05-05T16:38:58Z</time>
      </trkpt>
      <trkpt lat="46.36928" lon="6.85486">
        <ele>855</ele>
        <time>2011-05-05T16:39:03Z</time>
      </trkpt>
      <trkpt lat="46.36925" lon="6.855">
        <ele>853.2000122</ele>
        <time>2011-05-05T16:39:07Z</time>
      </trkpt>
      <trkpt lat="46.36925" lon="6.85517">
        <ele>850.4000244</ele>
        <time>2011-05-05T16:39:17Z</time>
      </trkpt>
      <trkpt lat="46.36925" lon="6.85516">
        <ele>848.4000244</ele>
        <time>2011-05-05T16:40:15Z</time>
      </trkpt>
      <trkpt lat="46.36925" lon="6.85516">
        <ele>848.4000244</ele>
        <time>2011-05-05T16:40:16Z</time>
      </trkpt>
      <trkpt lat="46.3693" lon="6.85502">
        <ele>848</ele>
        <time>2011-05-05T16:40:21Z</time>
      </trkpt>
      <trkpt lat="46.36935" lon="6.85491">
        <ele>847.2000122</ele>
        <time>2011-05-05T16:40:23Z</time>
      </trkpt>
      <trkpt lat="46.36951" lon="6.8546">
        <ele>844.2000122</ele>
        <time>2011-05-05T16:40:28Z</time>
      </trkpt>
      <trkpt lat="46.36966" lon="6.85431">
        <ele>841.2000122</ele>
        <time>2011-05-05T16:40:32Z</time>
      </trkpt>
      <trkpt lat="46.36979" lon="6.8541">
        <ele>838.2000122</ele>
        <time>2011-05-05T16:40:35Z</time>
      </trkpt>
      <trkpt lat="46.36988" lon="6.8539">
        <ele>835.2000122</ele>
        <time>2011-05-05T16:40:38Z</time>
      </trkpt>
      <trkpt lat="46.37" lon="6.85366">
        <ele>831.2000122</ele>
        <time>2011-05-05T16:40:41Z</time>
      </trkpt>
      <trkpt lat="46.37007" lon="6.85351">
        <ele>829.4000244</ele>
        <time>2011-05-05T16:40:43Z</time>
      </trkpt>
      <trkpt lat="46.37017" lon="6.85323">
        <ele>826.5999756</ele>
        <time>2011-05-05T16:40:47Z</time>
      </trkpt>
      <trkpt lat="46.37019" lon="6.85286">
        <ele>823.4000244</ele>
        <time>2011-05-05T16:40:51Z</time>
      </trkpt>
      <trkpt lat="46.37019" lon="6.85255">
        <ele>820.2000122</ele>
        <time>2011-05-05T16:40:55Z</time>
      </trkpt>
      <trkpt lat="46.3702" lon="6.85249">
        <ele>819.4000244</ele>
        <time>2011-05-05T16:40:56Z</time>
      </trkpt>
      <trkpt lat="46.37021" lon="6.85245">
        <ele>818.4000244</ele>
        <time>2011-05-05T16:40:57Z</time>
      </trkpt>
      <trkpt lat="46.37029" lon="6.85242">
        <ele>817.4000244</ele>
        <time>2011-05-05T16:40:59Z</time>
      </trkpt>
      <trkpt lat="46.37041" lon="6.8524">
        <ele>815.5999756</ele>
        <time>2011-05-05T16:41:02Z</time>
      </trkpt>
      <trkpt lat="46.37045" lon="6.85237">
        <ele>815.2000122</ele>
        <time>2011-05-05T16:41:03Z</time>
      </trkpt>
      <trkpt lat="46.37062" lon="6.85232">
        <ele>811.4000244</ele>
        <time>2011-05-05T16:41:07Z</time>
      </trkpt>
      <trkpt lat="46.37065" lon="6.8523">
        <ele>810.5999756</ele>
        <time>2011-05-05T16:41:08Z</time>
      </trkpt>
      <trkpt lat="46.37093" lon="6.85202">
        <ele>807</ele>
        <time>2011-05-05T16:41:13Z</time>
      </trkpt>
      <trkpt lat="46.3711" lon="6.85181">
        <ele>803.2000122</ele>
        <time>2011-05-05T16:41:17Z</time>
      </trkpt>
      <trkpt lat="46.37112" lon="6.85176">
        <ele>802</ele>
        <time>2011-05-05T16:41:18Z</time>
      </trkpt>
      <trkpt lat="46.37125" lon="6.85148">
        <ele>799</ele>
        <time>2011-05-05T16:41:22Z</time>
      </trkpt>
      <trkpt lat="46.37132" lon="6.85134">
        <ele>797.2000122</ele>
        <time>2011-05-05T16:41:24Z</time>
      </trkpt>
      <trkpt lat="46.37147" lon="6.85116">
        <ele>793.4000244</ele>
        <time>2011-05-05T16:41:28Z</time>
      </trkpt>
      <trkpt lat="46.37158" lon="6.85106">
        <ele>790</ele>
        <time>2011-05-05T16:41:31Z</time>
      </trkpt>
      <trkpt lat="46.37174" lon="6.85095">
        <ele>786.5999756</ele>
        <time>2011-05-05T16:41:35Z</time>
      </trkpt>
      <trkpt lat="46.37178" lon="6.85091">
        <ele>786</ele>
        <time>2011-05-05T16:41:36Z</time>
      </trkpt>
      <trkpt lat="46.37193" lon="6.85069">
        <ele>782.4000244</ele>
        <time>2011-05-05T16:41:40Z</time>
      </trkpt>
      <trkpt lat="46.37218" lon="6.85041">
        <ele>778.5999756</ele>
        <time>2011-05-05T16:41:44Z</time>
      </trkpt>
      <trkpt lat="46.37234" lon="6.85017">
        <ele>776</ele>
        <time>2011-05-05T16:41:47Z</time>
      </trkpt>
      <trkpt lat="46.37255" lon="6.84993">
        <ele>772.5999756</ele>
        <time>2011-05-05T16:41:50Z</time>
      </trkpt>
      <trkpt lat="46.37272" lon="6.84971">
        <ele>770.5999756</ele>
        <time>2011-05-05T16:41:52Z</time>
      </trkpt>
      <trkpt lat="46.37278" lon="6.84955">
        <ele>768.4000244</ele>
        <time>2011-05-05T16:41:54Z</time>
      </trkpt>
      <trkpt lat="46.37282" lon="6.84946">
        <ele>765</ele>
        <time>2011-05-05T16:41:57Z</time>
      </trkpt>
      <trkpt lat="46.37281" lon="6.84948">
        <ele>763.2000122</ele>
        <time>2011-05-05T16:42:01Z</time>
      </trkpt>
      <trkpt lat="46.37281" lon="6.84949">
        <ele>763.2000122</ele>
        <time>2011-05-05T16:42:05Z</time>
      </trkpt>
      <trkpt lat="46.3729" lon="6.84946">
        <ele>762.5999756</ele>
        <time>2011-05-05T16:42:12Z</time>
      </trkpt>
      <trkpt lat="46.37291" lon="6.84947">
        <ele>762</ele>
        <time>2011-05-05T16:42:14Z</time>
      </trkpt>
      <trkpt lat="46.37283" lon="6.84972">
        <ele>760.4000244</ele>
        <time>2011-05-05T16:42:17Z</time>
      </trkpt>
      <trkpt lat="46.37274" lon="6.85021">
        <ele>757.2000122</ele>
        <time>2011-05-05T16:42:21Z</time>
      </trkpt>
      <trkpt lat="46.37269" lon="6.85058">
        <ele>753.5999756</ele>
        <time>2011-05-05T16:42:25Z</time>
      </trkpt>
      <trkpt lat="46.37268" lon="6.85065">
        <ele>752.5999756</ele>
        <time>2011-05-05T16:42:26Z</time>
      </trkpt>
      <trkpt lat="46.37261" lon="6.85095">
        <ele>749.5999756</ele>
        <time>2011-05-05T16:42:29Z</time>
      </trkpt>
      <trkpt lat="46.37255" lon="6.85114">
        <ele>747.4000244</ele>
        <time>2011-05-05T16:42:31Z</time>
      </trkpt>
      <trkpt lat="46.3725" lon="6.85131">
        <ele>744.4000244</ele>
        <time>2011-05-05T16:42:34Z</time>
      </trkpt>
      <trkpt lat="46.37253" lon="6.85142">
        <ele>741.4000244</ele>
        <time>2011-05-05T16:42:38Z</time>
      </trkpt>
      <trkpt lat="46.37254" lon="6.85139">
        <ele>740.2000122</ele>
        <time>2011-05-05T16:42:40Z</time>
      </trkpt>
      <trkpt lat="46.37259" lon="6.8513">
        <ele>739.2000122</ele>
        <time>2011-05-05T16:42:43Z</time>
      </trkpt>
      <trkpt lat="46.37262" lon="6.85126">
        <ele>738.5999756</ele>
        <time>2011-05-05T16:42:44Z</time>
      </trkpt>
      <trkpt lat="46.37278" lon="6.85101">
        <ele>735.4000244</ele>
        <time>2011-05-05T16:42:48Z</time>
      </trkpt>
      <trkpt lat="46.37283" lon="6.85094">
        <ele>734.4000244</ele>
        <time>2011-05-05T16:42:49Z</time>
      </trkpt>
      <trkpt lat="46.37301" lon="6.85074">
        <ele>731.4000244</ele>
        <time>2011-05-05T16:42:52Z</time>
      </trkpt>
      <trkpt lat="46.37306" lon="6.85068">
        <ele>730.4000244</ele>
        <time>2011-05-05T16:42:53Z</time>
      </trkpt>
      <trkpt lat="46.37321" lon="6.85044">
        <ele>727.2000122</ele>
        <time>2011-05-05T16:42:56Z</time>
      </trkpt>
      <trkpt lat="46.37327" lon="6.85035">
        <ele>726.2000122</ele>
        <time>2011-05-05T16:42:57Z</time>
      </trkpt>
      <trkpt lat="46.37341" lon="6.8501">
        <ele>723.2000122</ele>
        <time>2011-05-05T16:43:00Z</time>
      </trkpt>
      <trkpt lat="46.37352" lon="6.84983">
        <ele>720</ele>
        <time>2011-05-05T16:43:03Z</time>
      </trkpt>
      <trkpt lat="46.37361" lon="6.84964">
        <ele>717</ele>
        <time>2011-05-05T16:43:06Z</time>
      </trkpt>
      <trkpt lat="46.37367" lon="6.84973">
        <ele>713.2000122</ele>
        <time>2011-05-05T16:43:09Z</time>
      </trkpt>
      <trkpt lat="46.37364" lon="6.85005">
        <ele>710.2000122</ele>
        <time>2011-05-05T16:43:13Z</time>
      </trkpt>
      <trkpt lat="46.37362" lon="6.85024">
        <ele>708.5999756</ele>
        <time>2011-05-05T16:43:15Z</time>
      </trkpt>
      <trkpt lat="46.37356" lon="6.85069">
        <ele>705.2000122</ele>
        <time>2011-05-05T16:43:19Z</time>
      </trkpt>
      <trkpt lat="46.37349" lon="6.85105">
        <ele>702.2000122</ele>
        <time>2011-05-05T16:43:22Z</time>
      </trkpt>
      <trkpt lat="46.3734" lon="6.85132">
        <ele>698.4000244</ele>
        <time>2011-05-05T16:43:25Z</time>
      </trkpt>
      <trkpt lat="46.37332" lon="6.85154">
        <ele>695.2000122</ele>
        <time>2011-05-05T16:43:28Z</time>
      </trkpt>
      <trkpt lat="46.3733" lon="6.85161">
        <ele>694.2000122</ele>
        <time>2011-05-05T16:43:29Z</time>
      </trkpt>
      <trkpt lat="46.37321" lon="6.85182">
        <ele>691.2000122</ele>
        <time>2011-05-05T16:43:32Z</time>
      </trkpt>
      <trkpt lat="46.37314" lon="6.85196">
        <ele>687.5999756</ele>
        <time>2011-05-05T16:43:35Z</time>
      </trkpt>
      <trkpt lat="46.37315" lon="6.85197">
        <ele>686.4000244</ele>
        <time>2011-05-05T16:43:37Z</time>
      </trkpt>
      <trkpt lat="46.37323" lon="6.85184">
        <ele>684.4000244</ele>
        <time>2011-05-05T16:43:40Z</time>
      </trkpt>
      <trkpt lat="46.37326" lon="6.85177">
        <ele>684.2000122</ele>
        <time>2011-05-05T16:43:41Z</time>
      </trkpt>
      <trkpt lat="46.37347" lon="6.85157">
        <ele>681.4000244</ele>
        <time>2011-05-05T16:43:46Z</time>
      </trkpt>
      <trkpt lat="46.37358" lon="6.85147">
        <ele>680.2000122</ele>
        <time>2011-05-05T16:43:48Z</time>
      </trkpt>
      <trkpt lat="46.37368" lon="6.85135">
        <ele>678.4000244</ele>
        <time>2011-05-05T16:43:50Z</time>
      </trkpt>
      <trkpt lat="46.37386" lon="6.85116">
        <ele>675.2000122</ele>
        <time>2011-05-05T16:43:53Z</time>
      </trkpt>
      <trkpt lat="46.37392" lon="6.85108">
        <ele>674.2000122</ele>
        <time>2011-05-05T16:43:54Z</time>
      </trkpt>
      <trkpt lat="46.37405" lon="6.85081">
        <ele>670.4000244</ele>
        <time>2011-05-05T16:43:57Z</time>
      </trkpt>
      <trkpt lat="46.37414" lon="6.85064">
        <ele>667.2000122</ele>
        <time>2011-05-05T16:43:59Z</time>
      </trkpt>
      <trkpt lat="46.37428" lon="6.85039">
        <ele>663.4000244</ele>
        <time>2011-05-05T16:44:02Z</time>
      </trkpt>
      <trkpt lat="46.3744" lon="6.85025">
        <ele>660.4000244</ele>
        <time>2011-05-05T16:44:04Z</time>
      </trkpt>
      <trkpt lat="46.37455" lon="6.85009">
        <ele>657</ele>
        <time>2011-05-05T16:44:07Z</time>
      </trkpt>
      <trkpt lat="46.37459" lon="6.85001">
        <ele>655.5999756</ele>
        <time>2011-05-05T16:44:08Z</time>
      </trkpt>
      <trkpt lat="46.3747" lon="6.84975">
        <ele>652.4000244</ele>
        <time>2011-05-05T16:44:11Z</time>
      </trkpt>
      <trkpt lat="46.3748" lon="6.84959">
        <ele>650.4000244</ele>
        <time>2011-05-05T16:44:13Z</time>
      </trkpt>
      <trkpt lat="46.37494" lon="6.84928">
        <ele>647.2000122</ele>
        <time>2011-05-05T16:44:16Z</time>
      </trkpt>
      <trkpt lat="46.375" lon="6.84915">
        <ele>646</ele>
        <time>2011-05-05T16:44:17Z</time>
      </trkpt>
      <trkpt lat="46.3751" lon="6.84888">
        <ele>643.5999756</ele>
        <time>2011-05-05T16:44:19Z</time>
      </trkpt>
      <trkpt lat="46.3752" lon="6.8485">
        <ele>639.5999756</ele>
        <time>2011-05-05T16:44:22Z</time>
      </trkpt>
      <trkpt lat="46.37527" lon="6.84827">
        <ele>636</ele>
        <time>2011-05-05T16:44:24Z</time>
      </trkpt>
      <trkpt lat="46.37539" lon="6.84798">
        <ele>632.4000244</ele>
        <time>2011-05-05T16:44:27Z</time>
      </trkpt>
      <trkpt lat="46.37542" lon="6.84788">
        <ele>631.4000244</ele>
        <time>2011-05-05T16:44:28Z</time>
      </trkpt>
      <trkpt lat="46.37544" lon="6.84765">
        <ele>628.4000244</ele>
        <time>2011-05-05T16:44:31Z</time>
      </trkpt>
      <trkpt lat="46.37543" lon="6.84742">
        <ele>625.4000244</ele>
        <time>2011-05-05T16:44:34Z</time>
      </trkpt>
      <trkpt lat="46.37559" lon="6.84717">
        <ele>622.2000122</ele>
        <time>2011-05-05T16:44:38Z</time>
      </trkpt>
      <trkpt lat="46.37587" lon="6.84698">
        <ele>619.2000122</ele>
        <time>2011-05-05T16:44:42Z</time>
      </trkpt>
      <trkpt lat="46.37611" lon="6.84696">
        <ele>616.4000244</ele>
        <time>2011-05-05T16:44:45Z</time>
      </trkpt>
      <trkpt lat="46.3762" lon="6.84694">
        <ele>615.5999756</ele>
        <time>2011-05-05T16:44:46Z</time>
      </trkpt>
      <trkpt lat="46.3764" lon="6.84693">
        <ele>612.5999756</ele>
        <time>2011-05-05T16:44:48Z</time>
      </trkpt>
      <trkpt lat="46.37669" lon="6.84692">
        <ele>609.5999756</ele>
        <time>2011-05-05T16:44:51Z</time>
      </trkpt>
      <trkpt lat="46.37678" lon="6.84692">
        <ele>608.4000244</ele>
        <time>2011-05-05T16:44:52Z</time>
      </trkpt>
      <trkpt lat="46.37693" lon="6.84688">
        <ele>606.4000244</ele>
        <time>2011-05-05T16:44:54Z</time>
      </trkpt>
      <trkpt lat="46.37709" lon="6.84684">
        <ele>604.4000244</ele>
        <time>2011-05-05T16:44:56Z</time>
      </trkpt>
      <trkpt lat="46.37729" lon="6.84669">
        <ele>601.5999756</ele>
        <time>2011-05-05T16:44:59Z</time>
      </trkpt>
      <trkpt lat="46.37744" lon="6.84656">
        <ele>599.2000122</ele>
        <time>2011-05-05T16:45:02Z</time>
      </trkpt>
      <trkpt lat="46.37763" lon="6.84646">
        <ele>596.5999756</ele>
        <time>2011-05-05T16:45:05Z</time>
      </trkpt>
      <trkpt lat="46.37788" lon="6.84637">
        <ele>593.4000244</ele>
        <time>2011-05-05T16:45:09Z</time>
      </trkpt>
      <trkpt lat="46.37804" lon="6.84636">
        <ele>590.5999756</ele>
        <time>2011-05-05T16:45:12Z</time>
      </trkpt>
      <trkpt lat="46.37817" lon="6.84634">
        <ele>587.4000244</ele>
        <time>2011-05-05T16:45:15Z</time>
      </trkpt>
      <trkpt lat="46.37827" lon="6.84627">
        <ele>586</ele>
        <time>2011-05-05T16:45:17Z</time>
      </trkpt>
      <trkpt lat="46.37838" lon="6.84616">
        <ele>584.4000244</ele>
        <time>2011-05-05T16:45:19Z</time>
      </trkpt>
      <trkpt lat="46.37861" lon="6.84604">
        <ele>581.2000122</ele>
        <time>2011-05-05T16:45:23Z</time>
      </trkpt>
      <trkpt lat="46.37886" lon="6.84592">
        <ele>578.2000122</ele>
        <time>2011-05-05T16:45:27Z</time>
      </trkpt>
      <trkpt lat="46.37893" lon="6.8459">
        <ele>577.2000122</ele>
        <time>2011-05-05T16:45:28Z</time>
      </trkpt>
      <trkpt lat="46.37914" lon="6.84565">
        <ele>573.5999756</ele>
        <time>2011-05-05T16:45:32Z</time>
      </trkpt>
      <trkpt lat="46.37919" lon="6.84558">
        <ele>573</ele>
        <time>2011-05-05T16:45:33Z</time>
      </trkpt>
      <trkpt lat="46.3793" lon="6.84537">
        <ele>570.4000244</ele>
        <time>2011-05-05T16:45:36Z</time>
      </trkpt>
      <trkpt lat="46.37937" lon="6.84527">
        <ele>567.4000244</ele>
        <time>2011-05-05T16:45:38Z</time>
      </trkpt>
      <trkpt lat="46.37941" lon="6.84522">
        <ele>566.5999756</ele>
        <time>2011-05-05T16:45:39Z</time>
      </trkpt>
      <trkpt lat="46.37965" lon="6.84499">
        <ele>563.2000122</ele>
        <time>2011-05-05T16:45:44Z</time>
      </trkpt>
      <trkpt lat="46.37973" lon="6.84482">
        <ele>561.5999756</ele>
        <time>2011-05-05T16:45:46Z</time>
      </trkpt>
      <trkpt lat="46.37981" lon="6.84467">
        <ele>560.4000244</ele>
        <time>2011-05-05T16:45:48Z</time>
      </trkpt>
      <trkpt lat="46.37991" lon="6.84446">
        <ele>558.4000244</ele>
        <time>2011-05-05T16:45:51Z</time>
      </trkpt>
      <trkpt lat="46.37998" lon="6.84426">
        <ele>556.2000122</ele>
        <time>2011-05-05T16:45:54Z</time>
      </trkpt>
      <trkpt lat="46.38014" lon="6.84437">
        <ele>553</ele>
        <time>2011-05-05T16:46:01Z</time>
      </trkpt>
      <trkpt lat="46.38025" lon="6.84447">
        <ele>549.4000244</ele>
        <time>2011-05-05T16:46:05Z</time>
      </trkpt>
      <trkpt lat="46.38031" lon="6.8445">
        <ele>548</ele>
        <time>2011-05-05T16:46:07Z</time>
      </trkpt>
      <trkpt lat="46.3804" lon="6.84451">
        <ele>544.4000244</ele>
        <time>2011-05-05T16:46:11Z</time>
      </trkpt>
      <trkpt lat="46.38042" lon="6.84452">
        <ele>543.4000244</ele>
        <time>2011-05-05T16:46:12Z</time>
      </trkpt>
      <trkpt lat="46.38049" lon="6.84458">
        <ele>540.2000122</ele>
        <time>2011-05-05T16:46:16Z</time>
      </trkpt>
      <trkpt lat="46.38056" lon="6.8446">
        <ele>538.4000244</ele>
        <time>2011-05-05T16:46:18Z</time>
      </trkpt>
      <trkpt lat="46.38072" lon="6.84464">
        <ele>535.2000122</ele>
        <time>2011-05-05T16:46:23Z</time>
      </trkpt>
      <trkpt lat="46.38082" lon="6.84465">
        <ele>533.4000244</ele>
        <time>2011-05-05T16:46:26Z</time>
      </trkpt>
      <trkpt lat="46.3809" lon="6.84469">
        <ele>530.4000244</ele>
        <time>2011-05-05T16:46:29Z</time>
      </trkpt>
      <trkpt lat="46.38104" lon="6.84475">
        <ele>527.4000244</ele>
        <time>2011-05-05T16:46:33Z</time>
      </trkpt>
      <trkpt lat="46.38108" lon="6.84476">
        <ele>526.5999756</ele>
        <time>2011-05-05T16:46:34Z</time>
      </trkpt>
      <trkpt lat="46.38113" lon="6.84476">
        <ele>526.4000244</ele>
        <time>2011-05-05T16:46:35Z</time>
      </trkpt>
      <trkpt lat="46.38132" lon="6.84477">
        <ele>524.4000244</ele>
        <time>2011-05-05T16:46:39Z</time>
      </trkpt>
      <trkpt lat="46.38149" lon="6.84473">
        <ele>522</ele>
        <time>2011-05-05T16:46:43Z</time>
      </trkpt>
      <trkpt lat="46.3817" lon="6.84478">
        <ele>522</ele>
        <time>2011-05-05T16:46:52Z</time>
      </trkpt>
      <trkpt lat="46.38169" lon="6.84478">
        <ele>522</ele>
        <time>2011-05-05T16:47:36Z</time>
      </trkpt>
      <trkpt lat="46.3817" lon="6.8448">
        <ele>522</ele>
        <time>2011-05-05T16:47:39Z</time>
      </trkpt>
      <trkpt lat="46.38191" lon="6.84512">
        <ele>522</ele>
        <time>2011-05-05T16:47:49Z</time>
      </trkpt>
      <trkpt lat="46.38209" lon="6.84535">
        <ele>522</ele>
        <time>2011-05-05T16:47:54Z</time>
      </trkpt>
      <trkpt lat="46.38233" lon="6.84602">
        <ele>521.4000244</ele>
        <time>2011-05-05T16:48:05Z</time>
      </trkpt>
      <trkpt lat="46.38234" lon="6.84607">
        <ele>520.5999756</ele>
        <time>2011-05-05T16:48:06Z</time>
      </trkpt>
      <trkpt lat="46.38237" lon="6.84612">
        <ele>520.4000244</ele>
        <time>2011-05-05T16:48:07Z</time>
      </trkpt>
      <trkpt lat="46.38265" lon="6.84665">
        <ele>519</ele>
        <time>2011-05-05T16:48:22Z</time>
      </trkpt>
      <trkpt lat="46.38272" lon="6.84673">
        <ele>517.5999756</ele>
        <time>2011-05-05T16:48:26Z</time>
      </trkpt>
      <trkpt lat="46.38286" lon="6.84682">
        <ele>516.5999756</ele>
        <time>2011-05-05T16:48:33Z</time>
      </trkpt>
      <trkpt lat="46.38293" lon="6.84691">
        <ele>514.2000122</ele>
        <time>2011-05-05T16:48:38Z</time>
      </trkpt>
      <trkpt lat="46.38304" lon="6.84701">
        <ele>511.2000122</ele>
        <time>2011-05-05T16:48:43Z</time>
      </trkpt>
      <trkpt lat="46.38307" lon="6.84702">
        <ele>510.6000061</ele>
        <time>2011-05-05T16:48:44Z</time>
      </trkpt>
      <trkpt lat="46.3831" lon="6.84704">
        <ele>509.6000061</ele>
        <time>2011-05-05T16:48:45Z</time>
      </trkpt>
      <trkpt lat="46.38321" lon="6.84716">
        <ele>506.2000122</ele>
        <time>2011-05-05T16:48:49Z</time>
      </trkpt>
      <trkpt lat="46.38327" lon="6.84726">
        <ele>502.6000061</ele>
        <time>2011-05-05T16:48:53Z</time>
      </trkpt>
      <trkpt lat="46.38329" lon="6.84728">
        <ele>502.2000122</ele>
        <time>2011-05-05T16:48:54Z</time>
      </trkpt>
      <trkpt lat="46.38337" lon="6.84736">
        <ele>499.2000122</ele>
        <time>2011-05-05T16:48:57Z</time>
      </trkpt>
      <trkpt lat="46.38345" lon="6.84747">
        <ele>497</ele>
        <time>2011-05-05T16:49:00Z</time>
      </trkpt>
      <trkpt lat="46.38358" lon="6.84757">
        <ele>493.6000061</ele>
        <time>2011-05-05T16:49:04Z</time>
      </trkpt>
      <trkpt lat="46.38369" lon="6.84771">
        <ele>490.2000122</ele>
        <time>2011-05-05T16:49:08Z</time>
      </trkpt>
      <trkpt lat="46.38371" lon="6.84776">
        <ele>489.2000122</ele>
        <time>2011-05-05T16:49:09Z</time>
      </trkpt>
      <trkpt lat="46.38374" lon="6.8478">
        <ele>488.6000061</ele>
        <time>2011-05-05T16:49:10Z</time>
      </trkpt>
      <trkpt lat="46.38387" lon="6.84795">
        <ele>485.6000061</ele>
        <time>2011-05-05T16:49:13Z</time>
      </trkpt>
      <trkpt lat="46.38393" lon="6.84814">
        <ele>482.2000122</ele>
        <time>2011-05-05T16:49:17Z</time>
      </trkpt>
      <trkpt lat="46.38392" lon="6.84824">
        <ele>479.6000061</ele>
        <time>2011-05-05T16:49:19Z</time>
      </trkpt>
      <trkpt lat="46.38391" lon="6.8483">
        <ele>478.6000061</ele>
        <time>2011-05-05T16:49:20Z</time>
      </trkpt>
      <trkpt lat="46.38394" lon="6.84844">
        <ele>475.6000061</ele>
        <time>2011-05-05T16:49:23Z</time>
      </trkpt>
      <trkpt lat="46.38403" lon="6.84865">
        <ele>472.6000061</ele>
        <time>2011-05-05T16:49:26Z</time>
      </trkpt>
      <trkpt lat="46.38411" lon="6.84898">
        <ele>469.2000122</ele>
        <time>2011-05-05T16:49:30Z</time>
      </trkpt>
      <trkpt lat="46.38413" lon="6.84907">
        <ele>468.6000061</ele>
        <time>2011-05-05T16:49:31Z</time>
      </trkpt>
      <trkpt lat="46.38415" lon="6.84914">
        <ele>467.6000061</ele>
        <time>2011-05-05T16:49:32Z</time>
      </trkpt>
      <trkpt lat="46.38423" lon="6.84932">
        <ele>464.6000061</ele>
        <time>2011-05-05T16:49:36Z</time>
      </trkpt>
      <trkpt lat="46.38422" lon="6.8493">
        <ele>463.2000122</ele>
        <time>2011-05-05T16:49:39Z</time>
      </trkpt>
      <trkpt lat="46.38424" lon="6.84952">
        <ele>461</ele>
        <time>2011-05-05T16:49:44Z</time>
      </trkpt>
      <trkpt lat="46.38436" lon="6.84967">
        <ele>459.6000061</ele>
        <time>2011-05-05T16:49:47Z</time>
      </trkpt>
      <trkpt lat="46.38449" lon="6.84993">
        <ele>456.6000061</ele>
        <time>2011-05-05T16:49:51Z</time>
      </trkpt>
      <trkpt lat="46.38456" lon="6.85015">
        <ele>453.2000122</ele>
        <time>2011-05-05T16:49:55Z</time>
      </trkpt>
      <trkpt lat="46.38458" lon="6.85031">
        <ele>450</ele>
        <time>2011-05-05T16:49:59Z</time>
      </trkpt>
      <trkpt lat="46.38459" lon="6.85037">
        <ele>448.2000122</ele>
        <time>2011-05-05T16:50:01Z</time>
      </trkpt>
      <trkpt lat="46.38484" lon="6.85077">
        <ele>445.6000061</ele>
        <time>2011-05-05T16:50:09Z</time>
      </trkpt>
      <trkpt lat="46.38491" lon="6.85082">
        <ele>445.2000122</ele>
        <time>2011-05-05T16:50:10Z</time>
      </trkpt>
      <trkpt lat="46.385" lon="6.85087">
        <ele>444.6000061</ele>
        <time>2011-05-05T16:50:11Z</time>
      </trkpt>
      <trkpt lat="46.38519" lon="6.85112">
        <ele>441.6000061</ele>
        <time>2011-05-05T16:50:15Z</time>
      </trkpt>
      <trkpt lat="46.38525" lon="6.85127">
        <ele>439</ele>
        <time>2011-05-05T16:50:18Z</time>
      </trkpt>
      <trkpt lat="46.38537" lon="6.85147">
        <ele>436.2000122</ele>
        <time>2011-05-05T16:50:22Z</time>
      </trkpt>
      <trkpt lat="46.38529" lon="6.85167">
        <ele>433.2000122</ele>
        <time>2011-05-05T16:50:27Z</time>
      </trkpt>
      <trkpt lat="46.38511" lon="6.85177">
        <ele>432</ele>
        <time>2011-05-05T16:50:30Z</time>
      </trkpt>
      <trkpt lat="46.3848" lon="6.85203">
        <ele>432</ele>
        <time>2011-05-05T16:50:40Z</time>
      </trkpt>
      <trkpt lat="46.38477" lon="6.85205">
        <ele>432</ele>
        <time>2011-05-05T16:50:41Z</time>
      </trkpt>
      <trkpt lat="46.38454" lon="6.85219">
        <ele>432</ele>
        <time>2011-05-05T16:50:49Z</time>
      </trkpt>
      <trkpt lat="46.38436" lon="6.85234">
        <ele>432</ele>
        <time>2011-05-05T16:50:53Z</time>
      </trkpt>
      <trkpt lat="46.38371" lon="6.85268">
        <ele>432</ele>
        <time>2011-05-05T16:51:07Z</time>
      </trkpt>
      <trkpt lat="46.38344" lon="6.85286">
        <ele>431.2000122</ele>
        <time>2011-05-05T16:51:13Z</time>
      </trkpt>
      <trkpt lat="46.38338" lon="6.85317">
        <ele>428.6000061</ele>
        <time>2011-05-05T16:51:19Z</time>
      </trkpt>
      <trkpt lat="46.3834" lon="6.85322">
        <ele>428.2000122</ele>
        <time>2011-05-05T16:51:20Z</time>
      </trkpt>
      <trkpt lat="46.38341" lon="6.85327">
        <ele>427.6000061</ele>
        <time>2011-05-05T16:51:21Z</time>
      </trkpt>
      <trkpt lat="46.38357" lon="6.85363">
        <ele>424.6000061</ele>
        <time>2011-05-05T16:51:29Z</time>
      </trkpt>
      <trkpt lat="46.38361" lon="6.85368">
        <ele>423.2000122</ele>
        <time>2011-05-05T16:51:32Z</time>
      </trkpt>
      <trkpt lat="46.38362" lon="6.8537">
        <ele>423</ele>
        <time>2011-05-05T16:51:40Z</time>
      </trkpt>
      <trkpt lat="46.38373" lon="6.85368">
        <ele>423</ele>
        <time>2011-05-05T16:51:45Z</time>
      </trkpt>
      <trkpt lat="46.38382" lon="6.85359">
        <ele>423</ele>
        <time>2011-05-05T16:51:48Z</time>
      </trkpt>
      <trkpt lat="46.38404" lon="6.85346">
        <ele>421.6000061</ele>
        <time>2011-05-05T16:51:53Z</time>
      </trkpt>
      <trkpt lat="46.38415" lon="6.85343">
        <ele>420.6000061</ele>
        <time>2011-05-05T16:51:55Z</time>
      </trkpt>
      <trkpt lat="46.38457" lon="6.85335">
        <ele>419.2000122</ele>
        <time>2011-05-05T16:52:02Z</time>
      </trkpt>
      <trkpt lat="46.38503" lon="6.85309">
        <ele>416.2000122</ele>
        <time>2011-05-05T16:52:10Z</time>
      </trkpt>
      <trkpt lat="46.38522" lon="6.85302">
        <ele>413.2000122</ele>
        <time>2011-05-05T16:52:17Z</time>
      </trkpt>
      <trkpt lat="46.3855" lon="6.85262">
        <ele>412</ele>
        <time>2011-05-05T16:52:29Z</time>
      </trkpt>
      <trkpt lat="46.38582" lon="6.85222">
        <ele>409</ele>
        <time>2011-05-05T16:52:36Z</time>
      </trkpt>
      <trkpt lat="46.38615" lon="6.85197">
        <ele>405.6000061</ele>
        <time>2011-05-05T16:52:42Z</time>
      </trkpt>
      <trkpt lat="46.3864" lon="6.85205">
        <ele>403</ele>
        <time>2011-05-05T16:52:47Z</time>
      </trkpt>
      <trkpt lat="46.38657" lon="6.85185">
        <ele>403</ele>
        <time>2011-05-05T16:52:53Z</time>
      </trkpt>
      <trkpt lat="46.38674" lon="6.85196">
        <ele>403</ele>
        <time>2011-05-05T16:52:59Z</time>
      </trkpt>
      <trkpt lat="46.3867" lon="6.85229">
        <ele>402.2000122</ele>
        <time>2011-05-05T16:53:05Z</time>
      </trkpt>
      <trkpt lat="46.3866" lon="6.85269">
        <ele>400.6000061</ele>
        <time>2011-05-05T16:53:12Z</time>
      </trkpt>
      <trkpt lat="46.38651" lon="6.85329">
        <ele>400.6000061</ele>
        <time>2011-05-05T16:53:23Z</time>
      </trkpt>
      <trkpt lat="46.38651" lon="6.85329">
        <ele>400.6000061</ele>
        <time>2011-05-05T16:53:55Z</time>
      </trkpt>
      <trkpt lat="46.3865" lon="6.85325">
        <ele>400.6000061</ele>
        <time>2011-05-05T16:55:10Z</time>
      </trkpt>
      <trkpt lat="46.3865" lon="6.85325">
        <ele>400.6000061</ele>
        <time>2011-05-05T16:55:11Z</time>
      </trkpt>
      <trkpt lat="46.38647" lon="6.85333">
        <ele>400.6000061</ele>
        <time>2011-05-05T16:55:15Z</time>
      </trkpt>
      <trkpt lat="46.38607" lon="6.85416">
        <ele>400.6000061</ele>
        <time>2011-05-05T16:55:37Z</time>
      </trkpt>
      <trkpt lat="46.38563" lon="6.85492">
        <ele>400.6000061</ele>
        <time>2011-05-05T16:55:55Z</time>
      </trkpt>
      <trkpt lat="46.38544" lon="6.85518">
        <ele>400.6000061</ele>
        <time>2011-05-05T16:56:01Z</time>
      </trkpt>
      <trkpt lat="46.38534" lon="6.85599">
        <ele>400.6000061</ele>
        <time>2011-05-05T16:56:15Z</time>
      </trkpt>
      <trkpt lat="46.38536" lon="6.85604">
        <ele>400.6000061</ele>
        <time>2011-05-05T16:56:16Z</time>
      </trkpt>
      <trkpt lat="46.38578" lon="6.85725">
        <ele>400.6000061</ele>
        <time>2011-05-05T16:56:39Z</time>
      </trkpt>
      <trkpt lat="46.38581" lon="6.85745">
        <ele>400.6000061</ele>
        <time>2011-05-05T16:56:43Z</time>
      </trkpt>
      <trkpt lat="46.38571" lon="6.85797">
        <ele>400.6000061</ele>
        <time>2011-05-05T16:56:54Z</time>
      </trkpt>
      <trkpt lat="46.38583" lon="6.8582">
        <ele>400.6000061</ele>
        <time>2011-05-05T16:57:01Z</time>
      </trkpt>
      <trkpt lat="46.38595" lon="6.85839">
        <ele>400.6000061</ele>
        <time>2011-05-05T16:57:08Z</time>
      </trkpt>
      <trkpt lat="46.38629" lon="6.85833">
        <ele>400.6000061</ele>
        <time>2011-05-05T16:57:19Z</time>
      </trkpt>
      <trkpt lat="46.38672" lon="6.85871">
        <ele>400.6000061</ele>
        <time>2011-05-05T16:57:33Z</time>
      </trkpt>
      <trkpt lat="46.38683" lon="6.85884">
        <ele>399.6000061</ele>
        <time>2011-05-05T16:57:38Z</time>
      </trkpt>
      <trkpt lat="46.38702" lon="6.85856">
        <ele>398.6000061</ele>
        <time>2011-05-05T16:57:45Z</time>
      </trkpt>
      <trkpt lat="46.38739" lon="6.85847">
        <ele>398.6000061</ele>
        <time>2011-05-05T16:57:57Z</time>
      </trkpt>
      <trkpt lat="46.38812" lon="6.85944">
        <ele>398.6000061</ele>
        <time>2011-05-05T16:58:22Z</time>
      </trkpt>
      <trkpt lat="46.38854" lon="6.85985">
        <ele>398.6000061</ele>
        <time>2011-05-05T16:58:35Z</time>
      </trkpt>
      <trkpt lat="46.38836" lon="6.86021">
        <ele>398.6000061</ele>
        <time>2011-05-05T16:58:43Z</time>
      </trkpt>
      <trkpt lat="46.3879" lon="6.861">
        <ele>398.6000061</ele>
        <time>2011-05-05T16:59:05Z</time>
      </trkpt>
      <trkpt lat="46.38789" lon="6.86116">
        <ele>398.6000061</ele>
        <time>2011-05-05T16:59:17Z</time>
      </trkpt>
      <trkpt lat="46.38787" lon="6.86129">
        <ele>398.6000061</ele>
        <time>2011-05-05T16:59:26Z</time>
      </trkpt>
      <trkpt lat="46.3886" lon="6.8625">
        <ele>398.6000061</ele>
        <time>2011-05-05T16:59:51Z</time>
      </trkpt>
      <trkpt lat="46.38852" lon="6.8628">
        <ele>398.6000061</ele>
        <time>2011-05-05T16:59:56Z</time>
      </trkpt>
      <trkpt lat="46.38738" lon="6.86466">
        <ele>397.6000061</ele>
        <time>2011-05-05T17:00:28Z</time>
      </trkpt>
      <trkpt lat="46.38609" lon="6.86682">
        <ele>396.6000061</ele>
        <time>2011-05-05T17:01:03Z</time>
      </trkpt>
      <trkpt lat="46.38442" lon="6.86966">
        <ele>396.6000061</ele>
        <time>2011-05-05T17:01:48Z</time>
      </trkpt>
      <trkpt lat="46.38424" lon="6.86995">
        <ele>396.6000061</ele>
        <time>2011-05-05T17:01:54Z</time>
      </trkpt>
      <trkpt lat="46.38421" lon="6.87026">
        <ele>396.6000061</ele>
        <time>2011-05-05T17:01:59Z</time>
      </trkpt>
      <trkpt lat="46.38423" lon="6.87106">
        <ele>396.6000061</ele>
        <time>2011-05-05T17:02:12Z</time>
      </trkpt>
      <trkpt lat="46.38425" lon="6.87113">
        <ele>396.6000061</ele>
        <time>2011-05-05T17:02:18Z</time>
      </trkpt>
      <trkpt lat="46.38433" lon="6.87108">
        <ele>398.6000061</ele>
        <time>2011-05-05T17:02:26Z</time>
      </trkpt>
      <trkpt lat="46.3843" lon="6.87138">
        <ele>398.6000061</ele>
        <time>2011-05-05T17:02:41Z</time>
      </trkpt>
      <trkpt lat="46.38432" lon="6.87141">
        <ele>398.6000061</ele>
        <time>2011-05-05T17:02:42Z</time>
      </trkpt>
      <trkpt lat="46.38467" lon="6.87215">
        <ele>398.6000061</ele>
        <time>2011-05-05T17:03:01Z</time>
      </trkpt>
      <trkpt lat="46.3847" lon="6.87213">
        <ele>398.6000061</ele>
        <time>2011-05-05T17:03:03Z</time>
      </trkpt>
      <trkpt lat="46.3848" lon="6.87205">
        <ele>398.6000061</ele>
        <time>2011-05-05T17:03:08Z</time>
      </trkpt>
      <trkpt lat="46.38471" lon="6.87219">
        <ele>398.6000061</ele>
        <time>2011-05-05T17:03:16Z</time>
      </trkpt>
      <trkpt lat="46.3847" lon="6.87222">
        <ele>398.6000061</ele>
        <time>2011-05-05T17:03:19Z</time>
      </trkpt>
      <trkpt lat="46.38468" lon="6.87245">
        <ele>397.6000061</ele>
        <time>2011-05-05T17:03:25Z</time>
      </trkpt>
      <trkpt lat="46.3845" lon="6.87304">
        <ele>396.6000061</ele>
        <time>2011-05-05T17:03:35Z</time>
      </trkpt>
      <trkpt lat="46.38427" lon="6.87436">
        <ele>396.6000061</ele>
        <time>2011-05-05T17:03:55Z</time>
      </trkpt>
      <trkpt lat="46.38418" lon="6.87483">
        <ele>396.2000122</ele>
        <time>2011-05-05T17:04:02Z</time>
      </trkpt>
      <trkpt lat="46.384" lon="6.87574">
        <ele>394.2000122</ele>
        <time>2011-05-05T17:04:15Z</time>
      </trkpt>
      <trkpt lat="46.38393" lon="6.87615">
        <ele>394.2000122</ele>
        <time>2011-05-05T17:04:21Z</time>
      </trkpt>
      <trkpt lat="46.38379" lon="6.87741">
        <ele>394.2000122</ele>
        <time>2011-05-05T17:04:39Z</time>
      </trkpt>
      <trkpt lat="46.38365" lon="6.87832">
        <ele>394.2000122</ele>
        <time>2011-05-05T17:04:51Z</time>
      </trkpt>
      <trkpt lat="46.38353" lon="6.87892">
        <ele>394.2000122</ele>
        <time>2011-05-05T17:04:59Z</time>
      </trkpt>
      <trkpt lat="46.38332" lon="6.88004">
        <ele>394.2000122</ele>
        <time>2011-05-05T17:05:15Z</time>
      </trkpt>
      <trkpt lat="46.38321" lon="6.88047">
        <ele>394.2000122</ele>
        <time>2011-05-05T17:05:21Z</time>
      </trkpt>
      <trkpt lat="46.38308" lon="6.88078">
        <ele>394.2000122</ele>
        <time>2011-05-05T17:05:26Z</time>
      </trkpt>
      <trkpt lat="46.38273" lon="6.88152">
        <ele>394.2000122</ele>
        <time>2011-05-05T17:05:37Z</time>
      </trkpt>
      <trkpt lat="46.38228" lon="6.88206">
        <ele>394.2000122</ele>
        <time>2011-05-05T17:05:47Z</time>
      </trkpt>
      <trkpt lat="46.38196" lon="6.88327">
        <ele>394.2000122</ele>
        <time>2011-05-05T17:06:02Z</time>
      </trkpt>
      <trkpt lat="46.38198" lon="6.88336">
        <ele>394.2000122</ele>
        <time>2011-05-05T17:06:03Z</time>
      </trkpt>
      <trkpt lat="46.3821" lon="6.88395">
        <ele>394.2000122</ele>
        <time>2011-05-05T17:06:10Z</time>
      </trkpt>
      <trkpt lat="46.382" lon="6.88499">
        <ele>394.2000122</ele>
        <time>2011-05-05T17:06:22Z</time>
      </trkpt>
      <trkpt lat="46.38181" lon="6.88553">
        <ele>394.2000122</ele>
        <time>2011-05-05T17:06:29Z</time>
      </trkpt>
      <trkpt lat="46.38108" lon="6.88745">
        <ele>394.2000122</ele>
        <time>2011-05-05T17:06:56Z</time>
      </trkpt>
      <trkpt lat="46.38105" lon="6.88752">
        <ele>394.2000122</ele>
        <time>2011-05-05T17:07:21Z</time>
      </trkpt>
      <trkpt lat="46.38105" lon="6.88754">
        <ele>394.2000122</ele>
        <time>2011-05-05T17:07:22Z</time>
      </trkpt>
      <trkpt lat="46.38141" lon="6.88792">
        <ele>394.2000122</ele>
        <time>2011-05-05T17:07:34Z</time>
      </trkpt>
      <trkpt lat="46.38209" lon="6.88864">
        <ele>394.2000122</ele>
        <time>2011-05-05T17:07:49Z</time>
      </trkpt>
      <trkpt lat="46.3822" lon="6.88919">
        <ele>394.2000122</ele>
        <time>2011-05-05T17:07:56Z</time>
      </trkpt>
      <trkpt lat="46.38221" lon="6.88936">
        <ele>394.2000122</ele>
        <time>2011-05-05T17:07:58Z</time>
      </trkpt>
      <trkpt lat="46.38253" lon="6.89109">
        <ele>392.6000061</ele>
        <time>2011-05-05T17:08:19Z</time>
      </trkpt>
      <trkpt lat="46.3827" lon="6.89207">
        <ele>392.2000122</ele>
        <time>2011-05-05T17:08:30Z</time>
      </trkpt>
      <trkpt lat="46.38266" lon="6.8925">
        <ele>392.2000122</ele>
        <time>2011-05-05T17:08:35Z</time>
      </trkpt>
      <trkpt lat="46.38248" lon="6.8939">
        <ele>392.2000122</ele>
        <time>2011-05-05T17:08:52Z</time>
      </trkpt>
      <trkpt lat="46.38217" lon="6.8942">
        <ele>392.2000122</ele>
        <time>2011-05-05T17:09:01Z</time>
      </trkpt>
      <trkpt lat="46.38171" lon="6.89415">
        <ele>392.2000122</ele>
        <time>2011-05-05T17:09:11Z</time>
      </trkpt>
      <trkpt lat="46.38142" lon="6.89417">
        <ele>392.2000122</ele>
        <time>2011-05-05T17:09:20Z</time>
      </trkpt>
      <trkpt lat="46.38138" lon="6.89451">
        <ele>392.2000122</ele>
        <time>2011-05-05T17:09:29Z</time>
      </trkpt>
      <trkpt lat="46.38108" lon="6.8945">
        <ele>392.2000122</ele>
        <time>2011-05-05T17:09:35Z</time>
      </trkpt>
      <trkpt lat="46.37978" lon="6.89444">
        <ele>392.2000122</ele>
        <time>2011-05-05T17:09:56Z</time>
      </trkpt>
      <trkpt lat="46.37739" lon="6.89443">
        <ele>392.2000122</ele>
        <time>2011-05-05T17:10:39Z</time>
      </trkpt>
      <trkpt lat="46.37736" lon="6.89443">
        <ele>390.2000122</ele>
        <time>2011-05-05T17:11:50Z</time>
      </trkpt>
      <trkpt lat="46.37736" lon="6.89443">
        <ele>390.2000122</ele>
        <time>2011-05-05T17:11:51Z</time>
      </trkpt>
      <trkpt lat="46.37718" lon="6.89438">
        <ele>390.2000122</ele>
        <time>2011-05-05T17:12:18Z</time>
      </trkpt>
      <trkpt lat="46.37698" lon="6.89438">
        <ele>390.2000122</ele>
        <time>2011-05-05T17:12:22Z</time>
      </trkpt>
      <trkpt lat="46.37596" lon="6.89434">
        <ele>390.2000122</ele>
        <time>2011-05-05T17:12:39Z</time>
      </trkpt>
      <trkpt lat="46.37419" lon="6.89431">
        <ele>390.2000122</ele>
        <time>2011-05-05T17:13:08Z</time>
      </trkpt>
      <trkpt lat="46.37262" lon="6.89425">
        <ele>390.2000122</ele>
        <time>2011-05-05T17:13:33Z</time>
      </trkpt>
      <trkpt lat="46.36978" lon="6.89426">
        <ele>390.2000122</ele>
        <time>2011-05-05T17:14:21Z</time>
      </trkpt>
      <trkpt lat="46.36815" lon="6.89449">
        <ele>390.2000122</ele>
        <time>2011-05-05T17:14:49Z</time>
      </trkpt>
      <trkpt lat="46.3681" lon="6.89422">
        <ele>390.2000122</ele>
        <time>2011-05-05T17:14:56Z</time>
      </trkpt>
      <trkpt lat="46.36809" lon="6.8941">
        <ele>390.2000122</ele>
        <time>2011-05-05T17:14:58Z</time>
      </trkpt>
      <trkpt lat="46.3684" lon="6.89317">
        <ele>390.2000122</ele>
        <time>2011-05-05T17:15:10Z</time>
      </trkpt>
      <trkpt lat="46.36883" lon="6.89234">
        <ele>390.2000122</ele>
        <time>2011-05-05T17:15:22Z</time>
      </trkpt>
      <trkpt lat="46.36866" lon="6.89168">
        <ele>390.2000122</ele>
        <time>2011-05-05T17:15:31Z</time>
      </trkpt>
      <trkpt lat="46.36811" lon="6.89131">
        <ele>390.2000122</ele>
        <time>2011-05-05T17:15:41Z</time>
      </trkpt>
      <trkpt lat="46.36804" lon="6.89129">
        <ele>390.2000122</ele>
        <time>2011-05-05T17:15:42Z</time>
      </trkpt>
      <trkpt lat="46.36769" lon="6.89114">
        <ele>390.2000122</ele>
        <time>2011-05-05T17:15:48Z</time>
      </trkpt>
      <trkpt lat="46.36723" lon="6.8909">
        <ele>390.2000122</ele>
        <time>2011-05-05T17:15:56Z</time>
      </trkpt>
      <trkpt lat="46.36652" lon="6.89068">
        <ele>390.2000122</ele>
        <time>2011-05-05T17:16:08Z</time>
      </trkpt>
      <trkpt lat="46.36598" lon="6.89088">
        <ele>390.2000122</ele>
        <time>2011-05-05T17:16:17Z</time>
      </trkpt>
      <trkpt lat="46.36439" lon="6.89146">
        <ele>390.2000122</ele>
        <time>2011-05-05T17:16:45Z</time>
      </trkpt>
      <trkpt lat="46.36379" lon="6.89126">
        <ele>390.2000122</ele>
        <time>2011-05-05T17:16:55Z</time>
      </trkpt>
      <trkpt lat="46.36336" lon="6.89089">
        <ele>390.2000122</ele>
        <time>2011-05-05T17:17:04Z</time>
      </trkpt>
      <trkpt lat="46.36274" lon="6.89038">
        <ele>390.2000122</ele>
        <time>2011-05-05T17:17:16Z</time>
      </trkpt>
      <trkpt lat="46.36126" lon="6.88936">
        <ele>390.2000122</ele>
        <time>2011-05-05T17:17:41Z</time>
      </trkpt>
      <trkpt lat="46.3603" lon="6.88872">
        <ele>390.2000122</ele>
        <time>2011-05-05T17:17:58Z</time>
      </trkpt>
      <trkpt lat="46.35968" lon="6.88895">
        <ele>390.2000122</ele>
        <time>2011-05-05T17:18:08Z</time>
      </trkpt>
      <trkpt lat="46.35874" lon="6.88938">
        <ele>390.2000122</ele>
        <time>2011-05-05T17:18:24Z</time>
      </trkpt>
      <trkpt lat="46.35837" lon="6.88953">
        <ele>390.2000122</ele>
        <time>2011-05-05T17:18:30Z</time>
      </trkpt>
      <trkpt lat="46.35749" lon="6.88991">
        <ele>390.2000122</ele>
        <time>2011-05-05T17:18:48Z</time>
      </trkpt>
      <trkpt lat="46.35742" lon="6.88972">
        <ele>390.2000122</ele>
        <time>2011-05-05T17:18:52Z</time>
      </trkpt>
      <trkpt lat="46.35717" lon="6.88811">
        <ele>390.2000122</ele>
        <time>2011-05-05T17:19:16Z</time>
      </trkpt>
      <trkpt lat="46.35711" lon="6.88771">
        <ele>390.2000122</ele>
        <time>2011-05-05T17:19:22Z</time>
      </trkpt>
      <trkpt lat="46.35696" lon="6.88645">
        <ele>390.2000122</ele>
        <time>2011-05-05T17:19:44Z</time>
      </trkpt>
      <trkpt lat="46.35693" lon="6.88612">
        <ele>390.2000122</ele>
        <time>2011-05-05T17:19:49Z</time>
      </trkpt>
      <trkpt lat="46.35693" lon="6.88541">
        <ele>390.2000122</ele>
        <time>2011-05-05T17:20:02Z</time>
      </trkpt>
      <trkpt lat="46.35662" lon="6.88525">
        <ele>390.2000122</ele>
        <time>2011-05-05T17:20:11Z</time>
      </trkpt>
      <trkpt lat="46.35646" lon="6.88514">
        <ele>390.2000122</ele>
        <time>2011-05-05T17:20:15Z</time>
      </trkpt>
      <trkpt lat="46.35617" lon="6.88497">
        <ele>390.2000122</ele>
        <time>2011-05-05T17:20:21Z</time>
      </trkpt>
      <trkpt lat="46.35597" lon="6.8848">
        <ele>390.2000122</ele>
        <time>2011-05-05T17:20:26Z</time>
      </trkpt>
      <trkpt lat="46.35545" lon="6.88476">
        <ele>390.2000122</ele>
        <time>2011-05-05T17:20:37Z</time>
      </trkpt>
      <trkpt lat="46.35537" lon="6.88481">
        <ele>390.2000122</ele>
        <time>2011-05-05T17:20:39Z</time>
      </trkpt>
      <trkpt lat="46.35508" lon="6.88498">
        <ele>390.2000122</ele>
        <time>2011-05-05T17:20:45Z</time>
      </trkpt>
      <trkpt lat="46.35468" lon="6.88515">
        <ele>390.2000122</ele>
        <time>2011-05-05T17:20:52Z</time>
      </trkpt>
      <trkpt lat="46.35308" lon="6.88588">
        <ele>390.2000122</ele>
        <time>2011-05-05T17:21:23Z</time>
      </trkpt>
      <trkpt lat="46.35155" lon="6.8866">
        <ele>390.2000122</ele>
        <time>2011-05-05T17:21:49Z</time>
      </trkpt>
      <trkpt lat="46.35101" lon="6.88685">
        <ele>390.2000122</ele>
        <time>2011-05-05T17:21:59Z</time>
      </trkpt>
      <trkpt lat="46.3508" lon="6.88716">
        <ele>390.2000122</ele>
        <time>2011-05-05T17:22:04Z</time>
      </trkpt>
      <trkpt lat="46.35035" lon="6.88787">
        <ele>390.2000122</ele>
        <time>2011-05-05T17:22:15Z</time>
      </trkpt>
      <trkpt lat="46.35025" lon="6.88806">
        <ele>390.2000122</ele>
        <time>2011-05-05T17:22:18Z</time>
      </trkpt>
      <trkpt lat="46.34967" lon="6.88881">
        <ele>390.2000122</ele>
        <time>2011-05-05T17:22:31Z</time>
      </trkpt>
      <trkpt lat="46.34943" lon="6.88899">
        <ele>392.6000061</ele>
        <time>2011-05-05T17:22:39Z</time>
      </trkpt>
      <trkpt lat="46.34924" lon="6.88856">
        <ele>392.6000061</ele>
        <time>2011-05-05T17:22:47Z</time>
      </trkpt>
      <trkpt lat="46.34894" lon="6.88795">
        <ele>392.6000061</ele>
        <time>2011-05-05T17:23:00Z</time>
      </trkpt>
      <trkpt lat="46.34891" lon="6.88795">
        <ele>392.6000061</ele>
        <time>2011-05-05T17:23:01Z</time>
      </trkpt>
    </trkseg>
  </trk>
</gpx>